<?xml version="1.0" encoding="UTF-8" standalone="no" ?>
<gpx xmlns="http://www.topografix.com/GPX/1/1" xmlns:xsi="http://www.w3.org/2001/XMLSchema-instance" xsi:schemaLocation="http://www.topografix.com/GPX/1/1 http://www.topografix.com/GPX/1/1/gpx.xsd" version="1.1" creator="VisuGPX - https://www.visugpx.com">
  <metadata>
    <name>Boucle Teillet - Les planques - Thuriès</name>
  </metadata>
  <trk>
    <name><![CDATA[2021-05-02 18:02:44]]></name>
    <trkseg>
      <trkpt lat="44.13703" lon="2.28504">
        <ele>481.76</ele>
        <time>2021-05-02T12:05:45Z</time>
      </trkpt>
      <trkpt lat="44.13703" lon="2.28504">
        <ele>481.76</ele>
        <time>2021-05-02T12:05:46Z</time>
      </trkpt>
      <trkpt lat="44.13703" lon="2.28503">
        <ele>480.8</ele>
        <time>2021-05-02T12:05:49Z</time>
      </trkpt>
      <trkpt lat="44.13698" lon="2.28508">
        <ele>480.8</ele>
        <time>2021-05-02T12:05:55Z</time>
      </trkpt>
      <trkpt lat="44.13683" lon="2.28525">
        <ele>482.72</ele>
        <time>2021-05-02T12:06:13Z</time>
      </trkpt>
      <trkpt lat="44.1368" lon="2.28528">
        <ele>482.72</ele>
        <time>2021-05-02T12:06:17Z</time>
      </trkpt>
      <trkpt lat="44.13677" lon="2.28533">
        <ele>480.8</ele>
        <time>2021-05-02T12:06:21Z</time>
      </trkpt>
      <trkpt lat="44.13675" lon="2.28535">
        <ele>482.72</ele>
        <time>2021-05-02T12:06:23Z</time>
      </trkpt>
      <trkpt lat="44.13657" lon="2.28556">
        <ele>482.72</ele>
        <time>2021-05-02T12:06:43Z</time>
      </trkpt>
      <trkpt lat="44.13645" lon="2.28571">
        <ele>482.72</ele>
        <time>2021-05-02T12:06:58Z</time>
      </trkpt>
      <trkpt lat="44.13629" lon="2.28602">
        <ele>482.72</ele>
        <time>2021-05-02T12:07:20Z</time>
      </trkpt>
      <trkpt lat="44.13627" lon="2.28604">
        <ele>482.72</ele>
        <time>2021-05-02T12:07:22Z</time>
      </trkpt>
      <trkpt lat="44.13606" lon="2.28616">
        <ele>483.2</ele>
        <time>2021-05-02T12:07:41Z</time>
      </trkpt>
      <trkpt lat="44.13601" lon="2.2862">
        <ele>483.2</ele>
        <time>2021-05-02T12:07:47Z</time>
      </trkpt>
      <trkpt lat="44.13589" lon="2.28606">
        <ele>481.76</ele>
        <time>2021-05-02T12:08:03Z</time>
      </trkpt>
      <trkpt lat="44.13576" lon="2.28591">
        <ele>479.84</ele>
        <time>2021-05-02T12:08:20Z</time>
      </trkpt>
      <trkpt lat="44.13564" lon="2.28578">
        <ele>476.95</ele>
        <time>2021-05-02T12:08:35Z</time>
      </trkpt>
      <trkpt lat="44.13554" lon="2.28567">
        <ele>474.07</ele>
        <time>2021-05-02T12:08:49Z</time>
      </trkpt>
      <trkpt lat="44.13544" lon="2.28558">
        <ele>472.14</ele>
        <time>2021-05-02T12:09:05Z</time>
      </trkpt>
      <trkpt lat="44.13535" lon="2.28547">
        <ele>469.74</ele>
        <time>2021-05-02T12:09:19Z</time>
      </trkpt>
      <trkpt lat="44.13522" lon="2.28533">
        <ele>466.86</ele>
        <time>2021-05-02T12:09:34Z</time>
      </trkpt>
      <trkpt lat="44.13508" lon="2.28518">
        <ele>464.45</ele>
        <time>2021-05-02T12:09:51Z</time>
      </trkpt>
      <trkpt lat="44.13494" lon="2.28506">
        <ele>462.05</ele>
        <time>2021-05-02T12:10:07Z</time>
      </trkpt>
      <trkpt lat="44.13478" lon="2.28487">
        <ele>459.65</ele>
        <time>2021-05-02T12:10:23Z</time>
      </trkpt>
      <trkpt lat="44.13465" lon="2.28475">
        <ele>457.24</ele>
        <time>2021-05-02T12:10:39Z</time>
      </trkpt>
      <trkpt lat="44.13454" lon="2.28464">
        <ele>454.84</ele>
        <time>2021-05-02T12:10:58Z</time>
      </trkpt>
      <trkpt lat="44.13443" lon="2.28452">
        <ele>451.96</ele>
        <time>2021-05-02T12:11:15Z</time>
      </trkpt>
      <trkpt lat="44.13429" lon="2.2844">
        <ele>448.59</ele>
        <time>2021-05-02T12:11:31Z</time>
      </trkpt>
      <trkpt lat="44.13417" lon="2.28426">
        <ele>445.23</ele>
        <time>2021-05-02T12:11:49Z</time>
      </trkpt>
      <trkpt lat="44.13407" lon="2.2842">
        <ele>441.86</ele>
        <time>2021-05-02T12:12:06Z</time>
      </trkpt>
      <trkpt lat="44.13394" lon="2.2841">
        <ele>438.5</ele>
        <time>2021-05-02T12:12:22Z</time>
      </trkpt>
      <trkpt lat="44.13388" lon="2.28406">
        <ele>436.58</ele>
        <time>2021-05-02T12:12:41Z</time>
      </trkpt>
      <trkpt lat="44.13374" lon="2.28397">
        <ele>434.17</ele>
        <time>2021-05-02T12:12:53Z</time>
      </trkpt>
      <trkpt lat="44.13364" lon="2.28403">
        <ele>432.25</ele>
        <time>2021-05-02T12:13:08Z</time>
      </trkpt>
      <trkpt lat="44.13353" lon="2.28414">
        <ele>429.85</ele>
        <time>2021-05-02T12:13:26Z</time>
      </trkpt>
      <trkpt lat="44.1334" lon="2.28421">
        <ele>427.92</ele>
        <time>2021-05-02T12:13:42Z</time>
      </trkpt>
      <trkpt lat="44.13325" lon="2.2843">
        <ele>426.96</ele>
        <time>2021-05-02T12:13:56Z</time>
      </trkpt>
      <trkpt lat="44.13306" lon="2.28444">
        <ele>426</ele>
        <time>2021-05-02T12:14:12Z</time>
      </trkpt>
      <trkpt lat="44.13291" lon="2.28458">
        <ele>424.08</ele>
        <time>2021-05-02T12:14:27Z</time>
      </trkpt>
      <trkpt lat="44.13281" lon="2.28474">
        <ele>422.16</ele>
        <time>2021-05-02T12:14:40Z</time>
      </trkpt>
      <trkpt lat="44.13265" lon="2.28491">
        <ele>420.23</ele>
        <time>2021-05-02T12:14:57Z</time>
      </trkpt>
      <trkpt lat="44.13251" lon="2.28488">
        <ele>419.75</ele>
        <time>2021-05-02T12:15:12Z</time>
      </trkpt>
      <trkpt lat="44.13242" lon="2.28486">
        <ele>419.27</ele>
        <time>2021-05-02T12:15:26Z</time>
      </trkpt>
      <trkpt lat="44.13228" lon="2.2848">
        <ele>419.75</ele>
        <time>2021-05-02T12:15:41Z</time>
      </trkpt>
      <trkpt lat="44.13218" lon="2.28475">
        <ele>419.75</ele>
        <time>2021-05-02T12:15:52Z</time>
      </trkpt>
      <trkpt lat="44.13205" lon="2.28468">
        <ele>419.75</ele>
        <time>2021-05-02T12:16:06Z</time>
      </trkpt>
      <trkpt lat="44.1319" lon="2.28458">
        <ele>419.27</ele>
        <time>2021-05-02T12:16:20Z</time>
      </trkpt>
      <trkpt lat="44.13165" lon="2.28431">
        <ele>419.27</ele>
        <time>2021-05-02T12:16:35Z</time>
      </trkpt>
      <trkpt lat="44.13152" lon="2.28421">
        <ele>418.79</ele>
        <time>2021-05-02T12:16:49Z</time>
      </trkpt>
      <trkpt lat="44.13134" lon="2.28411">
        <ele>418.31</ele>
        <time>2021-05-02T12:17:05Z</time>
      </trkpt>
      <trkpt lat="44.13126" lon="2.28405">
        <ele>417.83</ele>
        <time>2021-05-02T12:17:20Z</time>
      </trkpt>
      <trkpt lat="44.13116" lon="2.28395">
        <ele>417.35</ele>
        <time>2021-05-02T12:17:33Z</time>
      </trkpt>
      <trkpt lat="44.131" lon="2.28383">
        <ele>416.87</ele>
        <time>2021-05-02T12:17:47Z</time>
      </trkpt>
      <trkpt lat="44.13088" lon="2.28368">
        <ele>416.87</ele>
        <time>2021-05-02T12:18:03Z</time>
      </trkpt>
      <trkpt lat="44.13081" lon="2.28361">
        <ele>415.91</ele>
        <time>2021-05-02T12:18:12Z</time>
      </trkpt>
      <trkpt lat="44.1306" lon="2.28348">
        <ele>414.95</ele>
        <time>2021-05-02T12:18:27Z</time>
      </trkpt>
      <trkpt lat="44.13043" lon="2.28336">
        <ele>413.98</ele>
        <time>2021-05-02T12:18:40Z</time>
      </trkpt>
      <trkpt lat="44.13022" lon="2.28329">
        <ele>413.5</ele>
        <time>2021-05-02T12:18:56Z</time>
      </trkpt>
      <trkpt lat="44.13004" lon="2.28321">
        <ele>411.58</ele>
        <time>2021-05-02T12:19:11Z</time>
      </trkpt>
      <trkpt lat="44.12987" lon="2.28317">
        <ele>410.14</ele>
        <time>2021-05-02T12:19:26Z</time>
      </trkpt>
      <trkpt lat="44.12974" lon="2.28326">
        <ele>409.18</ele>
        <time>2021-05-02T12:19:38Z</time>
      </trkpt>
      <trkpt lat="44.12964" lon="2.2835">
        <ele>408.22</ele>
        <time>2021-05-02T12:19:53Z</time>
      </trkpt>
      <trkpt lat="44.12959" lon="2.28375">
        <ele>406.77</ele>
        <time>2021-05-02T12:20:11Z</time>
      </trkpt>
      <trkpt lat="44.12957" lon="2.28396">
        <ele>404.85</ele>
        <time>2021-05-02T12:20:26Z</time>
      </trkpt>
      <trkpt lat="44.12955" lon="2.28412">
        <ele>402.45</ele>
        <time>2021-05-02T12:20:40Z</time>
      </trkpt>
      <trkpt lat="44.12954" lon="2.28414">
        <ele>402.45</ele>
        <time>2021-05-02T12:20:41Z</time>
      </trkpt>
      <trkpt lat="44.12952" lon="2.28437">
        <ele>400.05</ele>
        <time>2021-05-02T12:20:56Z</time>
      </trkpt>
      <trkpt lat="44.12945" lon="2.28444">
        <ele>397.16</ele>
        <time>2021-05-02T12:21:09Z</time>
      </trkpt>
      <trkpt lat="44.12941" lon="2.28452">
        <ele>394.28</ele>
        <time>2021-05-02T12:21:20Z</time>
      </trkpt>
      <trkpt lat="44.12937" lon="2.28467">
        <ele>390.91</ele>
        <time>2021-05-02T12:21:35Z</time>
      </trkpt>
      <trkpt lat="44.12932" lon="2.28467">
        <ele>388.51</ele>
        <time>2021-05-02T12:21:50Z</time>
      </trkpt>
      <trkpt lat="44.12931" lon="2.28455">
        <ele>385.15</ele>
        <time>2021-05-02T12:22:06Z</time>
      </trkpt>
      <trkpt lat="44.12934" lon="2.28428">
        <ele>384.66</ele>
        <time>2021-05-02T12:22:22Z</time>
      </trkpt>
      <trkpt lat="44.12932" lon="2.28411">
        <ele>384.66</ele>
        <time>2021-05-02T12:22:37Z</time>
      </trkpt>
      <trkpt lat="44.12926" lon="2.28408">
        <ele>381.78</ele>
        <time>2021-05-02T12:22:47Z</time>
      </trkpt>
      <trkpt lat="44.12916" lon="2.28405">
        <ele>379.86</ele>
        <time>2021-05-02T12:23:02Z</time>
      </trkpt>
      <trkpt lat="44.12916" lon="2.28406">
        <ele>379.86</ele>
        <time>2021-05-02T12:23:28Z</time>
      </trkpt>
      <trkpt lat="44.12914" lon="2.28405">
        <ele>379.86</ele>
        <time>2021-05-02T12:23:50Z</time>
      </trkpt>
      <trkpt lat="44.12916" lon="2.28415">
        <ele>378.9</ele>
        <time>2021-05-02T12:24:08Z</time>
      </trkpt>
      <trkpt lat="44.12915" lon="2.2842">
        <ele>375.53</ele>
        <time>2021-05-02T12:24:21Z</time>
      </trkpt>
      <trkpt lat="44.12913" lon="2.28426">
        <ele>372.65</ele>
        <time>2021-05-02T12:24:34Z</time>
      </trkpt>
      <trkpt lat="44.1291" lon="2.28434">
        <ele>370.24</ele>
        <time>2021-05-02T12:24:49Z</time>
      </trkpt>
      <trkpt lat="44.12907" lon="2.28417">
        <ele>366.88</ele>
        <time>2021-05-02T12:25:08Z</time>
      </trkpt>
      <trkpt lat="44.12904" lon="2.28407">
        <ele>364.48</ele>
        <time>2021-05-02T12:25:25Z</time>
      </trkpt>
      <trkpt lat="44.12894" lon="2.28419">
        <ele>362.07</ele>
        <time>2021-05-02T12:25:40Z</time>
      </trkpt>
      <trkpt lat="44.1289" lon="2.28425">
        <ele>358.71</ele>
        <time>2021-05-02T12:25:55Z</time>
      </trkpt>
      <trkpt lat="44.12892" lon="2.2844">
        <ele>356.79</ele>
        <time>2021-05-02T12:26:12Z</time>
      </trkpt>
      <trkpt lat="44.12888" lon="2.28444">
        <ele>353.9</ele>
        <time>2021-05-02T12:26:26Z</time>
      </trkpt>
      <trkpt lat="44.12886" lon="2.28448">
        <ele>352.94</ele>
        <time>2021-05-02T12:26:43Z</time>
      </trkpt>
      <trkpt lat="44.12878" lon="2.28452">
        <ele>350.06</ele>
        <time>2021-05-02T12:27:00Z</time>
      </trkpt>
      <trkpt lat="44.12877" lon="2.28446">
        <ele>346.69</ele>
        <time>2021-05-02T12:27:18Z</time>
      </trkpt>
      <trkpt lat="44.1287" lon="2.28452">
        <ele>344.29</ele>
        <time>2021-05-02T12:27:33Z</time>
      </trkpt>
      <trkpt lat="44.12868" lon="2.28443">
        <ele>340.92</ele>
        <time>2021-05-02T12:27:48Z</time>
      </trkpt>
      <trkpt lat="44.12864" lon="2.28432">
        <ele>338.04</ele>
        <time>2021-05-02T12:28:03Z</time>
      </trkpt>
      <trkpt lat="44.12861" lon="2.28428">
        <ele>335.16</ele>
        <time>2021-05-02T12:28:17Z</time>
      </trkpt>
      <trkpt lat="44.12855" lon="2.28437">
        <ele>331.79</ele>
        <time>2021-05-02T12:28:32Z</time>
      </trkpt>
      <trkpt lat="44.12851" lon="2.28451">
        <ele>328.91</ele>
        <time>2021-05-02T12:28:46Z</time>
      </trkpt>
      <trkpt lat="44.12847" lon="2.28458">
        <ele>325.54</ele>
        <time>2021-05-02T12:29:00Z</time>
      </trkpt>
      <trkpt lat="44.12841" lon="2.28459">
        <ele>322.66</ele>
        <time>2021-05-02T12:29:15Z</time>
      </trkpt>
      <trkpt lat="44.12838" lon="2.28471">
        <ele>319.3</ele>
        <time>2021-05-02T12:29:31Z</time>
      </trkpt>
      <trkpt lat="44.12835" lon="2.28469">
        <ele>316.41</ele>
        <time>2021-05-02T12:29:44Z</time>
      </trkpt>
      <trkpt lat="44.12834" lon="2.28455">
        <ele>314.97</ele>
        <time>2021-05-02T12:30:01Z</time>
      </trkpt>
      <trkpt lat="44.12827" lon="2.28457">
        <ele>311.6</ele>
        <time>2021-05-02T12:30:16Z</time>
      </trkpt>
      <trkpt lat="44.12823" lon="2.28466">
        <ele>308.24</ele>
        <time>2021-05-02T12:30:32Z</time>
      </trkpt>
      <trkpt lat="44.12818" lon="2.28476">
        <ele>304.88</ele>
        <time>2021-05-02T12:30:49Z</time>
      </trkpt>
      <trkpt lat="44.12812" lon="2.28486">
        <ele>302.47</ele>
        <time>2021-05-02T12:31:05Z</time>
      </trkpt>
      <trkpt lat="44.12809" lon="2.28501">
        <ele>299.11</ele>
        <time>2021-05-02T12:31:20Z</time>
      </trkpt>
      <trkpt lat="44.12802" lon="2.28506">
        <ele>296.22</ele>
        <time>2021-05-02T12:31:35Z</time>
      </trkpt>
      <trkpt lat="44.12799" lon="2.28505">
        <ele>292.86</ele>
        <time>2021-05-02T12:31:52Z</time>
      </trkpt>
      <trkpt lat="44.12803" lon="2.28484">
        <ele>292.86</ele>
        <time>2021-05-02T12:32:07Z</time>
      </trkpt>
      <trkpt lat="44.12804" lon="2.28478">
        <ele>292.38</ele>
        <time>2021-05-02T12:32:28Z</time>
      </trkpt>
      <trkpt lat="44.12803" lon="2.28466">
        <ele>291.9</ele>
        <time>2021-05-02T12:32:43Z</time>
      </trkpt>
      <trkpt lat="44.12792" lon="2.28468">
        <ele>291.42</ele>
        <time>2021-05-02T12:33:04Z</time>
      </trkpt>
      <trkpt lat="44.12791" lon="2.28469">
        <ele>291.42</ele>
        <time>2021-05-02T12:33:05Z</time>
      </trkpt>
      <trkpt lat="44.12771" lon="2.28474">
        <ele>291.42</ele>
        <time>2021-05-02T12:33:20Z</time>
      </trkpt>
      <trkpt lat="44.12744" lon="2.28482">
        <ele>291.42</ele>
        <time>2021-05-02T12:33:43Z</time>
      </trkpt>
      <trkpt lat="44.12724" lon="2.28487">
        <ele>291.42</ele>
        <time>2021-05-02T12:34:02Z</time>
      </trkpt>
      <trkpt lat="44.12714" lon="2.28502">
        <ele>291.42</ele>
        <time>2021-05-02T12:34:18Z</time>
      </trkpt>
      <trkpt lat="44.12702" lon="2.28511">
        <ele>289.97</ele>
        <time>2021-05-02T12:34:29Z</time>
      </trkpt>
      <trkpt lat="44.12695" lon="2.28515">
        <ele>289.49</ele>
        <time>2021-05-02T12:34:45Z</time>
      </trkpt>
      <trkpt lat="44.1269" lon="2.2852">
        <ele>289.01</ele>
        <time>2021-05-02T12:35:01Z</time>
      </trkpt>
      <trkpt lat="44.12672" lon="2.28528">
        <ele>291.42</ele>
        <time>2021-05-02T12:35:18Z</time>
      </trkpt>
      <trkpt lat="44.12656" lon="2.28531">
        <ele>293.82</ele>
        <time>2021-05-02T12:35:34Z</time>
      </trkpt>
      <trkpt lat="44.12653" lon="2.28529">
        <ele>294.3</ele>
        <time>2021-05-02T12:35:37Z</time>
      </trkpt>
      <trkpt lat="44.1266" lon="2.28521">
        <ele>296.22</ele>
        <time>2021-05-02T12:35:53Z</time>
      </trkpt>
      <trkpt lat="44.12664" lon="2.28513">
        <ele>298.63</ele>
        <time>2021-05-02T12:36:07Z</time>
      </trkpt>
      <trkpt lat="44.12675" lon="2.285">
        <ele>301.03</ele>
        <time>2021-05-02T12:36:22Z</time>
      </trkpt>
      <trkpt lat="44.12689" lon="2.28486">
        <ele>303.91</ele>
        <time>2021-05-02T12:36:41Z</time>
      </trkpt>
      <trkpt lat="44.12699" lon="2.28476">
        <ele>306.32</ele>
        <time>2021-05-02T12:36:58Z</time>
      </trkpt>
      <trkpt lat="44.12703" lon="2.28467">
        <ele>308.24</ele>
        <time>2021-05-02T12:37:11Z</time>
      </trkpt>
      <trkpt lat="44.12691" lon="2.28463">
        <ele>310.16</ele>
        <time>2021-05-02T12:37:27Z</time>
      </trkpt>
      <trkpt lat="44.12689" lon="2.28463">
        <ele>310.64</ele>
        <time>2021-05-02T12:37:29Z</time>
      </trkpt>
      <trkpt lat="44.1267" lon="2.28466">
        <ele>312.09</ele>
        <time>2021-05-02T12:37:47Z</time>
      </trkpt>
      <trkpt lat="44.12656" lon="2.2847">
        <ele>313.53</ele>
        <time>2021-05-02T12:38:02Z</time>
      </trkpt>
      <trkpt lat="44.12648" lon="2.28473">
        <ele>314.97</ele>
        <time>2021-05-02T12:38:12Z</time>
      </trkpt>
      <trkpt lat="44.12632" lon="2.28479">
        <ele>316.41</ele>
        <time>2021-05-02T12:38:30Z</time>
      </trkpt>
      <trkpt lat="44.12616" lon="2.28486">
        <ele>317.85</ele>
        <time>2021-05-02T12:38:45Z</time>
      </trkpt>
      <trkpt lat="44.126" lon="2.28485">
        <ele>319.78</ele>
        <time>2021-05-02T12:39:01Z</time>
      </trkpt>
      <trkpt lat="44.12586" lon="2.28488">
        <ele>322.18</ele>
        <time>2021-05-02T12:39:19Z</time>
      </trkpt>
      <trkpt lat="44.12581" lon="2.28485">
        <ele>322.66</ele>
        <time>2021-05-02T12:39:35Z</time>
      </trkpt>
      <trkpt lat="44.12586" lon="2.2848">
        <ele>324.58</ele>
        <time>2021-05-02T12:39:47Z</time>
      </trkpt>
      <trkpt lat="44.12577" lon="2.28475">
        <ele>327.47</ele>
        <time>2021-05-02T12:40:00Z</time>
      </trkpt>
      <trkpt lat="44.1257" lon="2.2847">
        <ele>329.87</ele>
        <time>2021-05-02T12:40:14Z</time>
      </trkpt>
      <trkpt lat="44.12558" lon="2.2847">
        <ele>329.87</ele>
        <time>2021-05-02T12:40:28Z</time>
      </trkpt>
      <trkpt lat="44.12541" lon="2.28465">
        <ele>328.43</ele>
        <time>2021-05-02T12:40:45Z</time>
      </trkpt>
      <trkpt lat="44.12538" lon="2.28458">
        <ele>330.35</ele>
        <time>2021-05-02T12:40:57Z</time>
      </trkpt>
      <trkpt lat="44.12534" lon="2.28452">
        <ele>332.27</ele>
        <time>2021-05-02T12:41:09Z</time>
      </trkpt>
      <trkpt lat="44.12529" lon="2.28447">
        <ele>334.2</ele>
        <time>2021-05-02T12:41:22Z</time>
      </trkpt>
      <trkpt lat="44.12531" lon="2.28447">
        <ele>334.2</ele>
        <time>2021-05-02T12:41:41Z</time>
      </trkpt>
      <trkpt lat="44.1253" lon="2.28449">
        <ele>334.2</ele>
        <time>2021-05-02T12:42:00Z</time>
      </trkpt>
      <trkpt lat="44.12529" lon="2.28446">
        <ele>332.75</ele>
        <time>2021-05-02T12:42:19Z</time>
      </trkpt>
      <trkpt lat="44.1253" lon="2.28445">
        <ele>326.5</ele>
        <time>2021-05-02T12:42:42Z</time>
      </trkpt>
      <trkpt lat="44.1253" lon="2.28445">
        <ele>337.08</ele>
        <time>2021-05-02T12:42:43Z</time>
      </trkpt>
      <trkpt lat="44.1253" lon="2.28445">
        <ele>333.71</ele>
        <time>2021-05-02T12:42:44Z</time>
      </trkpt>
      <trkpt lat="44.12528" lon="2.28448">
        <ele>333.71</ele>
        <time>2021-05-02T12:43:13Z</time>
      </trkpt>
      <trkpt lat="44.12528" lon="2.28449">
        <ele>333.71</ele>
        <time>2021-05-02T12:43:35Z</time>
      </trkpt>
      <trkpt lat="44.12528" lon="2.28449">
        <ele>334.2</ele>
        <time>2021-05-02T12:44:02Z</time>
      </trkpt>
      <trkpt lat="44.12532" lon="2.28443">
        <ele>334.68</ele>
        <time>2021-05-02T12:44:34Z</time>
      </trkpt>
      <trkpt lat="44.12528" lon="2.28444">
        <ele>334.68</ele>
        <time>2021-05-02T12:44:47Z</time>
      </trkpt>
      <trkpt lat="44.1253" lon="2.2845">
        <ele>335.16</ele>
        <time>2021-05-02T12:45:01Z</time>
      </trkpt>
      <trkpt lat="44.1253" lon="2.28458">
        <ele>332.75</ele>
        <time>2021-05-02T12:45:12Z</time>
      </trkpt>
      <trkpt lat="44.12527" lon="2.28464">
        <ele>331.31</ele>
        <time>2021-05-02T12:45:26Z</time>
      </trkpt>
      <trkpt lat="44.12522" lon="2.28467">
        <ele>327.95</ele>
        <time>2021-05-02T12:45:38Z</time>
      </trkpt>
      <trkpt lat="44.12514" lon="2.28472">
        <ele>324.58</ele>
        <time>2021-05-02T12:45:50Z</time>
      </trkpt>
      <trkpt lat="44.125" lon="2.28475">
        <ele>323.14</ele>
        <time>2021-05-02T12:46:05Z</time>
      </trkpt>
      <trkpt lat="44.12489" lon="2.28468">
        <ele>326.5</ele>
        <time>2021-05-02T12:46:18Z</time>
      </trkpt>
      <trkpt lat="44.12477" lon="2.2846">
        <ele>328.43</ele>
        <time>2021-05-02T12:46:32Z</time>
      </trkpt>
      <trkpt lat="44.12465" lon="2.28463">
        <ele>330.83</ele>
        <time>2021-05-02T12:46:47Z</time>
      </trkpt>
      <trkpt lat="44.12453" lon="2.28465">
        <ele>333.23</ele>
        <time>2021-05-02T12:47:00Z</time>
      </trkpt>
      <trkpt lat="44.12442" lon="2.28466">
        <ele>335.16</ele>
        <time>2021-05-02T12:47:14Z</time>
      </trkpt>
      <trkpt lat="44.12431" lon="2.28464">
        <ele>336.6</ele>
        <time>2021-05-02T12:47:27Z</time>
      </trkpt>
      <trkpt lat="44.12424" lon="2.28459">
        <ele>339</ele>
        <time>2021-05-02T12:47:42Z</time>
      </trkpt>
      <trkpt lat="44.1242" lon="2.28452">
        <ele>342.37</ele>
        <time>2021-05-02T12:48:00Z</time>
      </trkpt>
      <trkpt lat="44.12413" lon="2.28453">
        <ele>344.29</ele>
        <time>2021-05-02T12:48:15Z</time>
      </trkpt>
      <trkpt lat="44.124" lon="2.28452">
        <ele>346.69</ele>
        <time>2021-05-02T12:48:33Z</time>
      </trkpt>
      <trkpt lat="44.1239" lon="2.28451">
        <ele>350.06</ele>
        <time>2021-05-02T12:48:47Z</time>
      </trkpt>
      <trkpt lat="44.12378" lon="2.28454">
        <ele>352.46</ele>
        <time>2021-05-02T12:49:05Z</time>
      </trkpt>
      <trkpt lat="44.12369" lon="2.28453">
        <ele>354.86</ele>
        <time>2021-05-02T12:49:20Z</time>
      </trkpt>
      <trkpt lat="44.12363" lon="2.28455">
        <ele>356.31</ele>
        <time>2021-05-02T12:49:35Z</time>
      </trkpt>
      <trkpt lat="44.12353" lon="2.28457">
        <ele>359.67</ele>
        <time>2021-05-02T12:49:56Z</time>
      </trkpt>
      <trkpt lat="44.12342" lon="2.2846">
        <ele>363.04</ele>
        <time>2021-05-02T12:50:13Z</time>
      </trkpt>
      <trkpt lat="44.1233" lon="2.28461">
        <ele>365.92</ele>
        <time>2021-05-02T12:50:32Z</time>
      </trkpt>
      <trkpt lat="44.12324" lon="2.28465">
        <ele>368.32</ele>
        <time>2021-05-02T12:50:50Z</time>
      </trkpt>
      <trkpt lat="44.12308" lon="2.28475">
        <ele>371.69</ele>
        <time>2021-05-02T12:51:09Z</time>
      </trkpt>
      <trkpt lat="44.12297" lon="2.28482">
        <ele>374.09</ele>
        <time>2021-05-02T12:51:29Z</time>
      </trkpt>
      <trkpt lat="44.12287" lon="2.28491">
        <ele>376.49</ele>
        <time>2021-05-02T12:51:47Z</time>
      </trkpt>
      <trkpt lat="44.12281" lon="2.285">
        <ele>379.86</ele>
        <time>2021-05-02T12:52:06Z</time>
      </trkpt>
      <trkpt lat="44.12276" lon="2.28502">
        <ele>382.26</ele>
        <time>2021-05-02T12:52:20Z</time>
      </trkpt>
      <trkpt lat="44.12256" lon="2.28507">
        <ele>384.18</ele>
        <time>2021-05-02T12:52:39Z</time>
      </trkpt>
      <trkpt lat="44.12244" lon="2.28506">
        <ele>387.07</ele>
        <time>2021-05-02T12:52:57Z</time>
      </trkpt>
      <trkpt lat="44.12235" lon="2.2851">
        <ele>389.47</ele>
        <time>2021-05-02T12:53:15Z</time>
      </trkpt>
      <trkpt lat="44.12225" lon="2.28515">
        <ele>391.87</ele>
        <time>2021-05-02T12:53:33Z</time>
      </trkpt>
      <trkpt lat="44.12213" lon="2.28518">
        <ele>395.24</ele>
        <time>2021-05-02T12:53:51Z</time>
      </trkpt>
      <trkpt lat="44.12201" lon="2.28522">
        <ele>397.16</ele>
        <time>2021-05-02T12:54:08Z</time>
      </trkpt>
      <trkpt lat="44.12185" lon="2.28529">
        <ele>399.57</ele>
        <time>2021-05-02T12:54:30Z</time>
      </trkpt>
      <trkpt lat="44.12175" lon="2.28532">
        <ele>402.45</ele>
        <time>2021-05-02T12:54:46Z</time>
      </trkpt>
      <trkpt lat="44.12162" lon="2.28535">
        <ele>404.85</ele>
        <time>2021-05-02T12:55:04Z</time>
      </trkpt>
      <trkpt lat="44.12149" lon="2.28536">
        <ele>407.74</ele>
        <time>2021-05-02T12:55:21Z</time>
      </trkpt>
      <trkpt lat="44.12139" lon="2.28535">
        <ele>409.66</ele>
        <time>2021-05-02T12:55:37Z</time>
      </trkpt>
      <trkpt lat="44.12126" lon="2.28528">
        <ele>411.58</ele>
        <time>2021-05-02T12:55:54Z</time>
      </trkpt>
      <trkpt lat="44.12115" lon="2.28521">
        <ele>413.5</ele>
        <time>2021-05-02T12:56:13Z</time>
      </trkpt>
      <trkpt lat="44.12106" lon="2.28518">
        <ele>415.43</ele>
        <time>2021-05-02T12:56:32Z</time>
      </trkpt>
      <trkpt lat="44.12098" lon="2.28511">
        <ele>418.31</ele>
        <time>2021-05-02T12:56:50Z</time>
      </trkpt>
      <trkpt lat="44.12088" lon="2.28511">
        <ele>420.71</ele>
        <time>2021-05-02T12:57:07Z</time>
      </trkpt>
      <trkpt lat="44.12079" lon="2.28506">
        <ele>422.64</ele>
        <time>2021-05-02T12:57:22Z</time>
      </trkpt>
      <trkpt lat="44.12067" lon="2.28507">
        <ele>425.04</ele>
        <time>2021-05-02T12:57:40Z</time>
      </trkpt>
      <trkpt lat="44.12055" lon="2.28507">
        <ele>427.44</ele>
        <time>2021-05-02T12:58:00Z</time>
      </trkpt>
      <trkpt lat="44.12044" lon="2.28505">
        <ele>430.33</ele>
        <time>2021-05-02T12:58:16Z</time>
      </trkpt>
      <trkpt lat="44.12034" lon="2.28501">
        <ele>433.21</ele>
        <time>2021-05-02T12:58:34Z</time>
      </trkpt>
      <trkpt lat="44.12026" lon="2.28496">
        <ele>434.65</ele>
        <time>2021-05-02T12:58:53Z</time>
      </trkpt>
      <trkpt lat="44.12017" lon="2.28488">
        <ele>436.58</ele>
        <time>2021-05-02T12:59:13Z</time>
      </trkpt>
      <trkpt lat="44.12009" lon="2.28482">
        <ele>438.98</ele>
        <time>2021-05-02T12:59:32Z</time>
      </trkpt>
      <trkpt lat="44.11998" lon="2.28475">
        <ele>441.38</ele>
        <time>2021-05-02T12:59:50Z</time>
      </trkpt>
      <trkpt lat="44.11992" lon="2.28471">
        <ele>443.79</ele>
        <time>2021-05-02T13:00:04Z</time>
      </trkpt>
      <trkpt lat="44.11981" lon="2.28463">
        <ele>446.67</ele>
        <time>2021-05-02T13:00:22Z</time>
      </trkpt>
      <trkpt lat="44.11971" lon="2.28456">
        <ele>450.03</ele>
        <time>2021-05-02T13:00:39Z</time>
      </trkpt>
      <trkpt lat="44.1196" lon="2.2845">
        <ele>452.92</ele>
        <time>2021-05-02T13:01:00Z</time>
      </trkpt>
      <trkpt lat="44.11952" lon="2.28444">
        <ele>455.8</ele>
        <time>2021-05-02T13:01:18Z</time>
      </trkpt>
      <trkpt lat="44.11954" lon="2.28441">
        <ele>458.21</ele>
        <time>2021-05-02T13:01:36Z</time>
      </trkpt>
      <trkpt lat="44.11966" lon="2.2844">
        <ele>459.65</ele>
        <time>2021-05-02T13:01:52Z</time>
      </trkpt>
      <trkpt lat="44.11977" lon="2.28436">
        <ele>461.57</ele>
        <time>2021-05-02T13:02:06Z</time>
      </trkpt>
      <trkpt lat="44.1199" lon="2.28425">
        <ele>463.01</ele>
        <time>2021-05-02T13:02:21Z</time>
      </trkpt>
      <trkpt lat="44.12003" lon="2.28413">
        <ele>464.45</ele>
        <time>2021-05-02T13:02:38Z</time>
      </trkpt>
      <trkpt lat="44.12017" lon="2.28403">
        <ele>465.9</ele>
        <time>2021-05-02T13:02:54Z</time>
      </trkpt>
      <trkpt lat="44.12026" lon="2.28395">
        <ele>467.82</ele>
        <time>2021-05-02T13:03:10Z</time>
      </trkpt>
      <trkpt lat="44.12032" lon="2.28381">
        <ele>469.74</ele>
        <time>2021-05-02T13:03:22Z</time>
      </trkpt>
      <trkpt lat="44.12034" lon="2.28377">
        <ele>470.22</ele>
        <time>2021-05-02T13:03:26Z</time>
      </trkpt>
      <trkpt lat="44.12041" lon="2.28367">
        <ele>470.22</ele>
        <time>2021-05-02T13:03:39Z</time>
      </trkpt>
      <trkpt lat="44.12038" lon="2.28366">
        <ele>469.74</ele>
        <time>2021-05-02T13:03:57Z</time>
      </trkpt>
      <trkpt lat="44.12036" lon="2.28365">
        <ele>469.74</ele>
        <time>2021-05-02T13:04:14Z</time>
      </trkpt>
      <trkpt lat="44.12038" lon="2.28367">
        <ele>469.74</ele>
        <time>2021-05-02T13:04:37Z</time>
      </trkpt>
      <trkpt lat="44.12038" lon="2.28368">
        <ele>469.74</ele>
        <time>2021-05-02T13:04:55Z</time>
      </trkpt>
      <trkpt lat="44.12036" lon="2.28364">
        <ele>469.74</ele>
        <time>2021-05-02T13:05:11Z</time>
      </trkpt>
      <trkpt lat="44.12036" lon="2.28366">
        <ele>468.78</ele>
        <time>2021-05-02T13:05:18Z</time>
      </trkpt>
      <trkpt lat="44.12033" lon="2.28366">
        <ele>470.22</ele>
        <time>2021-05-02T13:05:31Z</time>
      </trkpt>
      <trkpt lat="44.12023" lon="2.28345">
        <ele>470.7</ele>
        <time>2021-05-02T13:05:46Z</time>
      </trkpt>
      <trkpt lat="44.12022" lon="2.28336">
        <ele>470.7</ele>
        <time>2021-05-02T13:05:52Z</time>
      </trkpt>
      <trkpt lat="44.12023" lon="2.28317">
        <ele>467.34</ele>
        <time>2021-05-02T13:06:08Z</time>
      </trkpt>
      <trkpt lat="44.12023" lon="2.28298">
        <ele>464.45</ele>
        <time>2021-05-02T13:06:26Z</time>
      </trkpt>
      <trkpt lat="44.12021" lon="2.28285">
        <ele>461.09</ele>
        <time>2021-05-02T13:06:43Z</time>
      </trkpt>
      <trkpt lat="44.12011" lon="2.28264">
        <ele>458.69</ele>
        <time>2021-05-02T13:06:58Z</time>
      </trkpt>
      <trkpt lat="44.12002" lon="2.28253">
        <ele>455.8</ele>
        <time>2021-05-02T13:07:14Z</time>
      </trkpt>
      <trkpt lat="44.11989" lon="2.28241">
        <ele>453.4</ele>
        <time>2021-05-02T13:07:31Z</time>
      </trkpt>
      <trkpt lat="44.11976" lon="2.28234">
        <ele>450.03</ele>
        <time>2021-05-02T13:07:46Z</time>
      </trkpt>
      <trkpt lat="44.11964" lon="2.28215">
        <ele>447.15</ele>
        <time>2021-05-02T13:08:03Z</time>
      </trkpt>
      <trkpt lat="44.11955" lon="2.28191">
        <ele>444.75</ele>
        <time>2021-05-02T13:08:20Z</time>
      </trkpt>
      <trkpt lat="44.11953" lon="2.28182">
        <ele>441.86</ele>
        <time>2021-05-02T13:08:34Z</time>
      </trkpt>
      <trkpt lat="44.1195" lon="2.28169">
        <ele>439.46</ele>
        <time>2021-05-02T13:08:48Z</time>
      </trkpt>
      <trkpt lat="44.1195" lon="2.28159">
        <ele>437.06</ele>
        <time>2021-05-02T13:09:04Z</time>
      </trkpt>
      <trkpt lat="44.1195" lon="2.28143">
        <ele>434.17</ele>
        <time>2021-05-02T13:09:19Z</time>
      </trkpt>
      <trkpt lat="44.11947" lon="2.28128">
        <ele>432.25</ele>
        <time>2021-05-02T13:09:35Z</time>
      </trkpt>
      <trkpt lat="44.11947" lon="2.28102">
        <ele>431.29</ele>
        <time>2021-05-02T13:09:48Z</time>
      </trkpt>
      <trkpt lat="44.11949" lon="2.28088">
        <ele>430.33</ele>
        <time>2021-05-02T13:09:58Z</time>
      </trkpt>
      <trkpt lat="44.11948" lon="2.28078">
        <ele>430.33</ele>
        <time>2021-05-02T13:10:03Z</time>
      </trkpt>
      <trkpt lat="44.11949" lon="2.28073">
        <ele>430.33</ele>
        <time>2021-05-02T13:10:06Z</time>
      </trkpt>
      <trkpt lat="44.11951" lon="2.28063">
        <ele>430.33</ele>
        <time>2021-05-02T13:10:11Z</time>
      </trkpt>
      <trkpt lat="44.11954" lon="2.28042">
        <ele>429.85</ele>
        <time>2021-05-02T13:10:24Z</time>
      </trkpt>
      <trkpt lat="44.11956" lon="2.2802">
        <ele>429.37</ele>
        <time>2021-05-02T13:10:40Z</time>
      </trkpt>
      <trkpt lat="44.11963" lon="2.27996">
        <ele>427.44</ele>
        <time>2021-05-02T13:10:56Z</time>
      </trkpt>
      <trkpt lat="44.11975" lon="2.27982">
        <ele>425.04</ele>
        <time>2021-05-02T13:11:11Z</time>
      </trkpt>
      <trkpt lat="44.11984" lon="2.27969">
        <ele>426</ele>
        <time>2021-05-02T13:11:25Z</time>
      </trkpt>
      <trkpt lat="44.11986" lon="2.27969">
        <ele>426</ele>
        <time>2021-05-02T13:11:26Z</time>
      </trkpt>
      <trkpt lat="44.11989" lon="2.27958">
        <ele>426</ele>
        <time>2021-05-02T13:11:40Z</time>
      </trkpt>
      <trkpt lat="44.11988" lon="2.2795">
        <ele>426.48</ele>
        <time>2021-05-02T13:11:47Z</time>
      </trkpt>
      <trkpt lat="44.11992" lon="2.27936">
        <ele>426.96</ele>
        <time>2021-05-02T13:12:00Z</time>
      </trkpt>
      <trkpt lat="44.1199" lon="2.27929">
        <ele>426.96</ele>
        <time>2021-05-02T13:12:15Z</time>
      </trkpt>
      <trkpt lat="44.11986" lon="2.27933">
        <ele>426.96</ele>
        <time>2021-05-02T13:12:27Z</time>
      </trkpt>
      <trkpt lat="44.11987" lon="2.2793">
        <ele>426.96</ele>
        <time>2021-05-02T13:12:42Z</time>
      </trkpt>
      <trkpt lat="44.11989" lon="2.27929">
        <ele>427.44</ele>
        <time>2021-05-02T13:12:57Z</time>
      </trkpt>
      <trkpt lat="44.11987" lon="2.27929">
        <ele>427.44</ele>
        <time>2021-05-02T13:13:16Z</time>
      </trkpt>
      <trkpt lat="44.11989" lon="2.27929">
        <ele>426.48</ele>
        <time>2021-05-02T13:13:35Z</time>
      </trkpt>
      <trkpt lat="44.11989" lon="2.27927">
        <ele>426.48</ele>
        <time>2021-05-02T13:13:58Z</time>
      </trkpt>
      <trkpt lat="44.11987" lon="2.27925">
        <ele>426</ele>
        <time>2021-05-02T13:14:14Z</time>
      </trkpt>
      <trkpt lat="44.11987" lon="2.27932">
        <ele>426</ele>
        <time>2021-05-02T13:14:35Z</time>
      </trkpt>
      <trkpt lat="44.11987" lon="2.27932">
        <ele>426.96</ele>
        <time>2021-05-02T13:14:37Z</time>
      </trkpt>
      <trkpt lat="44.11989" lon="2.27926">
        <ele>426.96</ele>
        <time>2021-05-02T13:15:01Z</time>
      </trkpt>
      <trkpt lat="44.11986" lon="2.27932">
        <ele>426.96</ele>
        <time>2021-05-02T13:15:21Z</time>
      </trkpt>
      <trkpt lat="44.11988" lon="2.27934">
        <ele>426.96</ele>
        <time>2021-05-02T13:15:42Z</time>
      </trkpt>
      <trkpt lat="44.11988" lon="2.2793">
        <ele>426.96</ele>
        <time>2021-05-02T13:16:01Z</time>
      </trkpt>
      <trkpt lat="44.11987" lon="2.2793">
        <ele>426.96</ele>
        <time>2021-05-02T13:16:21Z</time>
      </trkpt>
      <trkpt lat="44.11987" lon="2.27926">
        <ele>426.96</ele>
        <time>2021-05-02T13:16:41Z</time>
      </trkpt>
      <trkpt lat="44.11987" lon="2.27926">
        <ele>426.96</ele>
        <time>2021-05-02T13:17:05Z</time>
      </trkpt>
      <trkpt lat="44.11989" lon="2.27929">
        <ele>426.96</ele>
        <time>2021-05-02T13:17:21Z</time>
      </trkpt>
      <trkpt lat="44.11993" lon="2.27932">
        <ele>426.96</ele>
        <time>2021-05-02T13:17:35Z</time>
      </trkpt>
      <trkpt lat="44.11993" lon="2.27935">
        <ele>426.96</ele>
        <time>2021-05-02T13:17:58Z</time>
      </trkpt>
      <trkpt lat="44.11993" lon="2.27935">
        <ele>426.96</ele>
        <time>2021-05-02T13:18:00Z</time>
      </trkpt>
      <trkpt lat="44.11992" lon="2.27934">
        <ele>426.96</ele>
        <time>2021-05-02T13:18:17Z</time>
      </trkpt>
      <trkpt lat="44.1199" lon="2.27935">
        <ele>426.96</ele>
        <time>2021-05-02T13:18:34Z</time>
      </trkpt>
      <trkpt lat="44.11989" lon="2.27934">
        <ele>426.96</ele>
        <time>2021-05-02T13:18:36Z</time>
      </trkpt>
      <trkpt lat="44.11982" lon="2.27931">
        <ele>425.52</ele>
        <time>2021-05-02T13:18:45Z</time>
      </trkpt>
      <trkpt lat="44.1198" lon="2.27927">
        <ele>424.56</ele>
        <time>2021-05-02T13:19:06Z</time>
      </trkpt>
      <trkpt lat="44.11982" lon="2.27926">
        <ele>424.08</ele>
        <time>2021-05-02T13:19:28Z</time>
      </trkpt>
      <trkpt lat="44.11984" lon="2.27927">
        <ele>425.04</ele>
        <time>2021-05-02T13:19:30Z</time>
      </trkpt>
      <trkpt lat="44.11991" lon="2.27929">
        <ele>426.96</ele>
        <time>2021-05-02T13:19:45Z</time>
      </trkpt>
      <trkpt lat="44.11991" lon="2.27932">
        <ele>426.48</ele>
        <time>2021-05-02T13:20:06Z</time>
      </trkpt>
      <trkpt lat="44.11992" lon="2.27932">
        <ele>426.48</ele>
        <time>2021-05-02T13:20:31Z</time>
      </trkpt>
      <trkpt lat="44.11989" lon="2.27929">
        <ele>426.48</ele>
        <time>2021-05-02T13:20:42Z</time>
      </trkpt>
      <trkpt lat="44.11985" lon="2.27925">
        <ele>425.52</ele>
        <time>2021-05-02T13:21:00Z</time>
      </trkpt>
      <trkpt lat="44.11986" lon="2.27925">
        <ele>425.04</ele>
        <time>2021-05-02T13:21:32Z</time>
      </trkpt>
      <trkpt lat="44.11985" lon="2.27926">
        <ele>425.04</ele>
        <time>2021-05-02T13:22:08Z</time>
      </trkpt>
      <trkpt lat="44.11982" lon="2.27925">
        <ele>423.6</ele>
        <time>2021-05-02T13:22:23Z</time>
      </trkpt>
      <trkpt lat="44.11977" lon="2.27926">
        <ele>421.68</ele>
        <time>2021-05-02T13:22:41Z</time>
      </trkpt>
      <trkpt lat="44.11971" lon="2.27921">
        <ele>418.31</ele>
        <time>2021-05-02T13:22:54Z</time>
      </trkpt>
      <trkpt lat="44.11968" lon="2.27922">
        <ele>415.43</ele>
        <time>2021-05-02T13:23:08Z</time>
      </trkpt>
      <trkpt lat="44.11964" lon="2.27928">
        <ele>413.02</ele>
        <time>2021-05-02T13:23:23Z</time>
      </trkpt>
      <trkpt lat="44.11961" lon="2.27927">
        <ele>410.14</ele>
        <time>2021-05-02T13:23:36Z</time>
      </trkpt>
      <trkpt lat="44.11959" lon="2.27922">
        <ele>408.7</ele>
        <time>2021-05-02T13:23:45Z</time>
      </trkpt>
      <trkpt lat="44.11961" lon="2.2791">
        <ele>408.22</ele>
        <time>2021-05-02T13:24:00Z</time>
      </trkpt>
      <trkpt lat="44.11959" lon="2.2791">
        <ele>408.22</ele>
        <time>2021-05-02T13:24:14Z</time>
      </trkpt>
      <trkpt lat="44.11959" lon="2.27913">
        <ele>408.22</ele>
        <time>2021-05-02T13:24:30Z</time>
      </trkpt>
      <trkpt lat="44.11956" lon="2.27921">
        <ele>405.81</ele>
        <time>2021-05-02T13:24:43Z</time>
      </trkpt>
      <trkpt lat="44.1195" lon="2.27924">
        <ele>402.93</ele>
        <time>2021-05-02T13:24:56Z</time>
      </trkpt>
      <trkpt lat="44.11943" lon="2.27929">
        <ele>399.08</ele>
        <time>2021-05-02T13:25:08Z</time>
      </trkpt>
      <trkpt lat="44.11935" lon="2.27932">
        <ele>397.16</ele>
        <time>2021-05-02T13:25:27Z</time>
      </trkpt>
      <trkpt lat="44.11928" lon="2.27925">
        <ele>394.28</ele>
        <time>2021-05-02T13:25:40Z</time>
      </trkpt>
      <trkpt lat="44.11922" lon="2.2791">
        <ele>390.91</ele>
        <time>2021-05-02T13:25:53Z</time>
      </trkpt>
      <trkpt lat="44.11921" lon="2.27897">
        <ele>389.47</ele>
        <time>2021-05-02T13:26:06Z</time>
      </trkpt>
      <trkpt lat="44.11925" lon="2.27887">
        <ele>388.03</ele>
        <time>2021-05-02T13:26:17Z</time>
      </trkpt>
      <trkpt lat="44.1193" lon="2.27866">
        <ele>385.63</ele>
        <time>2021-05-02T13:26:31Z</time>
      </trkpt>
      <trkpt lat="44.11936" lon="2.27856">
        <ele>384.66</ele>
        <time>2021-05-02T13:26:38Z</time>
      </trkpt>
      <trkpt lat="44.11941" lon="2.2785">
        <ele>383.22</ele>
        <time>2021-05-02T13:26:44Z</time>
      </trkpt>
      <trkpt lat="44.11951" lon="2.27834">
        <ele>380.82</ele>
        <time>2021-05-02T13:26:58Z</time>
      </trkpt>
      <trkpt lat="44.11966" lon="2.27816">
        <ele>377.94</ele>
        <time>2021-05-02T13:27:15Z</time>
      </trkpt>
      <trkpt lat="44.11971" lon="2.27801">
        <ele>376.97</ele>
        <time>2021-05-02T13:27:31Z</time>
      </trkpt>
      <trkpt lat="44.11967" lon="2.27794">
        <ele>375.53</ele>
        <time>2021-05-02T13:27:48Z</time>
      </trkpt>
      <trkpt lat="44.11964" lon="2.27789">
        <ele>374.09</ele>
        <time>2021-05-02T13:27:54Z</time>
      </trkpt>
      <trkpt lat="44.11951" lon="2.2778">
        <ele>373.61</ele>
        <time>2021-05-02T13:28:10Z</time>
      </trkpt>
      <trkpt lat="44.11944" lon="2.27764">
        <ele>371.69</ele>
        <time>2021-05-02T13:28:24Z</time>
      </trkpt>
      <trkpt lat="44.11941" lon="2.27746">
        <ele>370.24</ele>
        <time>2021-05-02T13:28:36Z</time>
      </trkpt>
      <trkpt lat="44.11938" lon="2.2773">
        <ele>367.36</ele>
        <time>2021-05-02T13:28:48Z</time>
      </trkpt>
      <trkpt lat="44.11938" lon="2.27704">
        <ele>365.44</ele>
        <time>2021-05-02T13:29:03Z</time>
      </trkpt>
      <trkpt lat="44.11943" lon="2.27684">
        <ele>363.04</ele>
        <time>2021-05-02T13:29:17Z</time>
      </trkpt>
      <trkpt lat="44.11947" lon="2.27666">
        <ele>360.63</ele>
        <time>2021-05-02T13:29:32Z</time>
      </trkpt>
      <trkpt lat="44.11945" lon="2.27646">
        <ele>358.23</ele>
        <time>2021-05-02T13:29:47Z</time>
      </trkpt>
      <trkpt lat="44.11951" lon="2.27619">
        <ele>354.86</ele>
        <time>2021-05-02T13:30:03Z</time>
      </trkpt>
      <trkpt lat="44.11954" lon="2.27597">
        <ele>352.94</ele>
        <time>2021-05-02T13:30:17Z</time>
      </trkpt>
      <trkpt lat="44.11957" lon="2.27591">
        <ele>350.54</ele>
        <time>2021-05-02T13:30:31Z</time>
      </trkpt>
      <trkpt lat="44.11958" lon="2.27604">
        <ele>348.13</ele>
        <time>2021-05-02T13:30:47Z</time>
      </trkpt>
      <trkpt lat="44.11956" lon="2.27624">
        <ele>345.25</ele>
        <time>2021-05-02T13:31:04Z</time>
      </trkpt>
      <trkpt lat="44.11959" lon="2.27643">
        <ele>343.33</ele>
        <time>2021-05-02T13:31:17Z</time>
      </trkpt>
      <trkpt lat="44.11962" lon="2.27658">
        <ele>340.92</ele>
        <time>2021-05-02T13:31:30Z</time>
      </trkpt>
      <trkpt lat="44.11962" lon="2.27677">
        <ele>339.48</ele>
        <time>2021-05-02T13:31:45Z</time>
      </trkpt>
      <trkpt lat="44.11963" lon="2.27696">
        <ele>336.6</ele>
        <time>2021-05-02T13:32:01Z</time>
      </trkpt>
      <trkpt lat="44.11972" lon="2.27697">
        <ele>334.68</ele>
        <time>2021-05-02T13:32:14Z</time>
      </trkpt>
      <trkpt lat="44.11972" lon="2.27696">
        <ele>334.68</ele>
        <time>2021-05-02T13:32:15Z</time>
      </trkpt>
      <trkpt lat="44.11977" lon="2.27683">
        <ele>331.79</ele>
        <time>2021-05-02T13:32:27Z</time>
      </trkpt>
      <trkpt lat="44.11978" lon="2.27666">
        <ele>329.39</ele>
        <time>2021-05-02T13:32:41Z</time>
      </trkpt>
      <trkpt lat="44.11982" lon="2.27649">
        <ele>326.5</ele>
        <time>2021-05-02T13:32:56Z</time>
      </trkpt>
      <trkpt lat="44.11988" lon="2.27631">
        <ele>324.1</ele>
        <time>2021-05-02T13:33:10Z</time>
      </trkpt>
      <trkpt lat="44.11995" lon="2.27614">
        <ele>322.18</ele>
        <time>2021-05-02T13:33:24Z</time>
      </trkpt>
      <trkpt lat="44.11995" lon="2.27608">
        <ele>321.22</ele>
        <time>2021-05-02T13:33:29Z</time>
      </trkpt>
      <trkpt lat="44.11995" lon="2.27597">
        <ele>318.33</ele>
        <time>2021-05-02T13:33:43Z</time>
      </trkpt>
      <trkpt lat="44.11997" lon="2.27583">
        <ele>315.93</ele>
        <time>2021-05-02T13:33:57Z</time>
      </trkpt>
      <trkpt lat="44.11997" lon="2.27575">
        <ele>314.97</ele>
        <time>2021-05-02T13:34:03Z</time>
      </trkpt>
      <trkpt lat="44.11997" lon="2.27558">
        <ele>314.97</ele>
        <time>2021-05-02T13:34:16Z</time>
      </trkpt>
      <trkpt lat="44.11995" lon="2.27545">
        <ele>314.49</ele>
        <time>2021-05-02T13:34:30Z</time>
      </trkpt>
      <trkpt lat="44.1199" lon="2.27531">
        <ele>316.41</ele>
        <time>2021-05-02T13:34:41Z</time>
      </trkpt>
      <trkpt lat="44.11986" lon="2.27521">
        <ele>317.85</ele>
        <time>2021-05-02T13:34:51Z</time>
      </trkpt>
      <trkpt lat="44.11983" lon="2.27508">
        <ele>316.89</ele>
        <time>2021-05-02T13:35:05Z</time>
      </trkpt>
      <trkpt lat="44.11981" lon="2.27505">
        <ele>314.97</ele>
        <time>2021-05-02T13:35:16Z</time>
      </trkpt>
      <trkpt lat="44.11975" lon="2.27506">
        <ele>311.6</ele>
        <time>2021-05-02T13:35:28Z</time>
      </trkpt>
      <trkpt lat="44.1197" lon="2.27507">
        <ele>309.2</ele>
        <time>2021-05-02T13:35:38Z</time>
      </trkpt>
      <trkpt lat="44.11961" lon="2.27501">
        <ele>306.32</ele>
        <time>2021-05-02T13:35:52Z</time>
      </trkpt>
      <trkpt lat="44.1195" lon="2.27492">
        <ele>304.39</ele>
        <time>2021-05-02T13:36:07Z</time>
      </trkpt>
      <trkpt lat="44.11945" lon="2.27489">
        <ele>303.91</ele>
        <time>2021-05-02T13:36:22Z</time>
      </trkpt>
      <trkpt lat="44.1195" lon="2.27486">
        <ele>304.88</ele>
        <time>2021-05-02T13:36:30Z</time>
      </trkpt>
      <trkpt lat="44.11951" lon="2.27474">
        <ele>306.8</ele>
        <time>2021-05-02T13:36:40Z</time>
      </trkpt>
      <trkpt lat="44.11949" lon="2.27463">
        <ele>307.28</ele>
        <time>2021-05-02T13:36:50Z</time>
      </trkpt>
      <trkpt lat="44.1195" lon="2.27452">
        <ele>308.72</ele>
        <time>2021-05-02T13:37:03Z</time>
      </trkpt>
      <trkpt lat="44.11951" lon="2.27439">
        <ele>309.2</ele>
        <time>2021-05-02T13:37:16Z</time>
      </trkpt>
      <trkpt lat="44.11954" lon="2.27422">
        <ele>311.6</ele>
        <time>2021-05-02T13:37:31Z</time>
      </trkpt>
      <trkpt lat="44.11961" lon="2.2741">
        <ele>312.57</ele>
        <time>2021-05-02T13:37:41Z</time>
      </trkpt>
      <trkpt lat="44.11962" lon="2.27408">
        <ele>313.05</ele>
        <time>2021-05-02T13:37:43Z</time>
      </trkpt>
      <trkpt lat="44.11968" lon="2.27394">
        <ele>314.49</ele>
        <time>2021-05-02T13:37:57Z</time>
      </trkpt>
      <trkpt lat="44.11975" lon="2.27374">
        <ele>314.49</ele>
        <time>2021-05-02T13:38:10Z</time>
      </trkpt>
      <trkpt lat="44.11977" lon="2.27357">
        <ele>315.45</ele>
        <time>2021-05-02T13:38:24Z</time>
      </trkpt>
      <trkpt lat="44.11974" lon="2.27344">
        <ele>317.85</ele>
        <time>2021-05-02T13:38:37Z</time>
      </trkpt>
      <trkpt lat="44.11972" lon="2.27333">
        <ele>319.78</ele>
        <time>2021-05-02T13:38:47Z</time>
      </trkpt>
      <trkpt lat="44.11966" lon="2.2732">
        <ele>321.22</ele>
        <time>2021-05-02T13:39:00Z</time>
      </trkpt>
      <trkpt lat="44.11957" lon="2.27298">
        <ele>323.62</ele>
        <time>2021-05-02T13:39:15Z</time>
      </trkpt>
      <trkpt lat="44.11952" lon="2.27286">
        <ele>324.1</ele>
        <time>2021-05-02T13:39:25Z</time>
      </trkpt>
      <trkpt lat="44.11944" lon="2.27282">
        <ele>326.02</ele>
        <time>2021-05-02T13:39:35Z</time>
      </trkpt>
      <trkpt lat="44.11938" lon="2.27283">
        <ele>327.95</ele>
        <time>2021-05-02T13:39:50Z</time>
      </trkpt>
      <trkpt lat="44.11935" lon="2.27296">
        <ele>329.39</ele>
        <time>2021-05-02T13:40:03Z</time>
      </trkpt>
      <trkpt lat="44.11929" lon="2.27302">
        <ele>331.79</ele>
        <time>2021-05-02T13:40:18Z</time>
      </trkpt>
      <trkpt lat="44.11924" lon="2.27287">
        <ele>331.31</ele>
        <time>2021-05-02T13:40:34Z</time>
      </trkpt>
      <trkpt lat="44.11918" lon="2.27265">
        <ele>331.31</ele>
        <time>2021-05-02T13:40:50Z</time>
      </trkpt>
      <trkpt lat="44.11915" lon="2.27242">
        <ele>333.23</ele>
        <time>2021-05-02T13:41:05Z</time>
      </trkpt>
      <trkpt lat="44.11914" lon="2.27217">
        <ele>333.71</ele>
        <time>2021-05-02T13:41:19Z</time>
      </trkpt>
      <trkpt lat="44.11914" lon="2.27209">
        <ele>334.68</ele>
        <time>2021-05-02T13:41:23Z</time>
      </trkpt>
      <trkpt lat="44.11917" lon="2.27189">
        <ele>335.64</ele>
        <time>2021-05-02T13:41:36Z</time>
      </trkpt>
      <trkpt lat="44.11918" lon="2.27188">
        <ele>336.12</ele>
        <time>2021-05-02T13:41:37Z</time>
      </trkpt>
      <trkpt lat="44.1192" lon="2.2717">
        <ele>337.56</ele>
        <time>2021-05-02T13:41:48Z</time>
      </trkpt>
      <trkpt lat="44.11926" lon="2.27149">
        <ele>338.52</ele>
        <time>2021-05-02T13:42:01Z</time>
      </trkpt>
      <trkpt lat="44.11925" lon="2.27136">
        <ele>339.48</ele>
        <time>2021-05-02T13:42:12Z</time>
      </trkpt>
      <trkpt lat="44.1193" lon="2.27111">
        <ele>339.48</ele>
        <time>2021-05-02T13:42:28Z</time>
      </trkpt>
      <trkpt lat="44.11931" lon="2.27095">
        <ele>337.08</ele>
        <time>2021-05-02T13:42:39Z</time>
      </trkpt>
      <trkpt lat="44.1193" lon="2.27084">
        <ele>336.6</ele>
        <time>2021-05-02T13:42:46Z</time>
      </trkpt>
      <trkpt lat="44.11927" lon="2.27064">
        <ele>336.12</ele>
        <time>2021-05-02T13:43:01Z</time>
      </trkpt>
      <trkpt lat="44.11924" lon="2.27043">
        <ele>336.6</ele>
        <time>2021-05-02T13:43:14Z</time>
      </trkpt>
      <trkpt lat="44.11923" lon="2.27032">
        <ele>336.6</ele>
        <time>2021-05-02T13:43:20Z</time>
      </trkpt>
      <trkpt lat="44.11919" lon="2.27004">
        <ele>334.68</ele>
        <time>2021-05-02T13:43:36Z</time>
      </trkpt>
      <trkpt lat="44.11919" lon="2.27">
        <ele>334.68</ele>
        <time>2021-05-02T13:43:39Z</time>
      </trkpt>
      <trkpt lat="44.11917" lon="2.26981">
        <ele>335.16</ele>
        <time>2021-05-02T13:43:54Z</time>
      </trkpt>
      <trkpt lat="44.1191" lon="2.26972">
        <ele>336.6</ele>
        <time>2021-05-02T13:44:07Z</time>
      </trkpt>
      <trkpt lat="44.11908" lon="2.26953">
        <ele>336.12</ele>
        <time>2021-05-02T13:44:22Z</time>
      </trkpt>
      <trkpt lat="44.11905" lon="2.26944">
        <ele>333.71</ele>
        <time>2021-05-02T13:44:40Z</time>
      </trkpt>
      <trkpt lat="44.11898" lon="2.2694">
        <ele>332.75</ele>
        <time>2021-05-02T13:45:01Z</time>
      </trkpt>
      <trkpt lat="44.11889" lon="2.26936">
        <ele>331.79</ele>
        <time>2021-05-02T13:45:14Z</time>
      </trkpt>
      <trkpt lat="44.11884" lon="2.26936">
        <ele>333.23</ele>
        <time>2021-05-02T13:45:21Z</time>
      </trkpt>
      <trkpt lat="44.11876" lon="2.26929">
        <ele>333.23</ele>
        <time>2021-05-02T13:45:32Z</time>
      </trkpt>
      <trkpt lat="44.11871" lon="2.2693">
        <ele>330.35</ele>
        <time>2021-05-02T13:45:43Z</time>
      </trkpt>
      <trkpt lat="44.11858" lon="2.26931">
        <ele>328.43</ele>
        <time>2021-05-02T13:45:56Z</time>
      </trkpt>
      <trkpt lat="44.1185" lon="2.26922">
        <ele>329.87</ele>
        <time>2021-05-02T13:46:08Z</time>
      </trkpt>
      <trkpt lat="44.11843" lon="2.26911">
        <ele>330.35</ele>
        <time>2021-05-02T13:46:22Z</time>
      </trkpt>
      <trkpt lat="44.11834" lon="2.26905">
        <ele>328.43</ele>
        <time>2021-05-02T13:46:36Z</time>
      </trkpt>
      <trkpt lat="44.11826" lon="2.26899">
        <ele>330.83</ele>
        <time>2021-05-02T13:46:48Z</time>
      </trkpt>
      <trkpt lat="44.11819" lon="2.26884">
        <ele>332.27</ele>
        <time>2021-05-02T13:47:02Z</time>
      </trkpt>
      <trkpt lat="44.1182" lon="2.26874">
        <ele>330.83</ele>
        <time>2021-05-02T13:47:20Z</time>
      </trkpt>
      <trkpt lat="44.1182" lon="2.26872">
        <ele>330.83</ele>
        <time>2021-05-02T13:47:21Z</time>
      </trkpt>
      <trkpt lat="44.11825" lon="2.26859">
        <ele>330.83</ele>
        <time>2021-05-02T13:47:34Z</time>
      </trkpt>
      <trkpt lat="44.11833" lon="2.26851">
        <ele>328.43</ele>
        <time>2021-05-02T13:47:46Z</time>
      </trkpt>
      <trkpt lat="44.11841" lon="2.26849">
        <ele>325.06</ele>
        <time>2021-05-02T13:47:58Z</time>
      </trkpt>
      <trkpt lat="44.11852" lon="2.26843">
        <ele>322.66</ele>
        <time>2021-05-02T13:48:11Z</time>
      </trkpt>
      <trkpt lat="44.11863" lon="2.26837">
        <ele>319.78</ele>
        <time>2021-05-02T13:48:22Z</time>
      </trkpt>
      <trkpt lat="44.11873" lon="2.26829">
        <ele>317.85</ele>
        <time>2021-05-02T13:48:37Z</time>
      </trkpt>
      <trkpt lat="44.11885" lon="2.26815">
        <ele>314.97</ele>
        <time>2021-05-02T13:48:51Z</time>
      </trkpt>
      <trkpt lat="44.11891" lon="2.26802">
        <ele>313.53</ele>
        <time>2021-05-02T13:49:04Z</time>
      </trkpt>
      <trkpt lat="44.1189" lon="2.26794">
        <ele>311.12</ele>
        <time>2021-05-02T13:49:21Z</time>
      </trkpt>
      <trkpt lat="44.11889" lon="2.26783">
        <ele>311.12</ele>
        <time>2021-05-02T13:49:33Z</time>
      </trkpt>
      <trkpt lat="44.11888" lon="2.26773">
        <ele>312.57</ele>
        <time>2021-05-02T13:49:43Z</time>
      </trkpt>
      <trkpt lat="44.11888" lon="2.2676">
        <ele>315.45</ele>
        <time>2021-05-02T13:49:56Z</time>
      </trkpt>
      <trkpt lat="44.11893" lon="2.26745">
        <ele>315.45</ele>
        <time>2021-05-02T13:50:10Z</time>
      </trkpt>
      <trkpt lat="44.11892" lon="2.26731">
        <ele>313.53</ele>
        <time>2021-05-02T13:50:23Z</time>
      </trkpt>
      <trkpt lat="44.11896" lon="2.26718">
        <ele>314.97</ele>
        <time>2021-05-02T13:50:36Z</time>
      </trkpt>
      <trkpt lat="44.11895" lon="2.26707">
        <ele>318.33</ele>
        <time>2021-05-02T13:50:48Z</time>
      </trkpt>
      <trkpt lat="44.11893" lon="2.267">
        <ele>318.33</ele>
        <time>2021-05-02T13:51:04Z</time>
      </trkpt>
      <trkpt lat="44.11893" lon="2.267">
        <ele>318.33</ele>
        <time>2021-05-02T13:51:10Z</time>
      </trkpt>
      <trkpt lat="44.11893" lon="2.26695">
        <ele>318.33</ele>
        <time>2021-05-02T13:51:24Z</time>
      </trkpt>
      <trkpt lat="44.11897" lon="2.26697">
        <ele>318.33</ele>
        <time>2021-05-02T13:51:40Z</time>
      </trkpt>
      <trkpt lat="44.11896" lon="2.26697">
        <ele>318.33</ele>
        <time>2021-05-02T13:51:59Z</time>
      </trkpt>
      <trkpt lat="44.11897" lon="2.26693">
        <ele>317.85</ele>
        <time>2021-05-02T13:52:19Z</time>
      </trkpt>
      <trkpt lat="44.11894" lon="2.26691">
        <ele>317.85</ele>
        <time>2021-05-02T13:52:37Z</time>
      </trkpt>
      <trkpt lat="44.1189" lon="2.26695">
        <ele>317.85</ele>
        <time>2021-05-02T13:52:59Z</time>
      </trkpt>
      <trkpt lat="44.11892" lon="2.26696">
        <ele>317.85</ele>
        <time>2021-05-02T13:53:18Z</time>
      </trkpt>
      <trkpt lat="44.11886" lon="2.26693">
        <ele>317.37</ele>
        <time>2021-05-02T13:53:36Z</time>
      </trkpt>
      <trkpt lat="44.11884" lon="2.26693">
        <ele>316.41</ele>
        <time>2021-05-02T13:53:51Z</time>
      </trkpt>
      <trkpt lat="44.1188" lon="2.2669">
        <ele>313.05</ele>
        <time>2021-05-02T13:54:04Z</time>
      </trkpt>
      <trkpt lat="44.11874" lon="2.26682">
        <ele>309.68</ele>
        <time>2021-05-02T13:54:20Z</time>
      </trkpt>
      <trkpt lat="44.11876" lon="2.26676">
        <ele>307.28</ele>
        <time>2021-05-02T13:54:34Z</time>
      </trkpt>
      <trkpt lat="44.11883" lon="2.2667">
        <ele>304.39</ele>
        <time>2021-05-02T13:54:51Z</time>
      </trkpt>
      <trkpt lat="44.11891" lon="2.26669">
        <ele>301.03</ele>
        <time>2021-05-02T13:55:07Z</time>
      </trkpt>
      <trkpt lat="44.11896" lon="2.26661">
        <ele>299.11</ele>
        <time>2021-05-02T13:55:17Z</time>
      </trkpt>
      <trkpt lat="44.11904" lon="2.26655">
        <ele>296.22</ele>
        <time>2021-05-02T13:55:31Z</time>
      </trkpt>
      <trkpt lat="44.119" lon="2.26641">
        <ele>295.74</ele>
        <time>2021-05-02T13:55:43Z</time>
      </trkpt>
      <trkpt lat="44.11905" lon="2.26628">
        <ele>293.82</ele>
        <time>2021-05-02T13:55:55Z</time>
      </trkpt>
      <trkpt lat="44.11904" lon="2.26619">
        <ele>293.82</ele>
        <time>2021-05-02T13:56:09Z</time>
      </trkpt>
      <trkpt lat="44.11901" lon="2.26614">
        <ele>293.34</ele>
        <time>2021-05-02T13:56:22Z</time>
      </trkpt>
      <trkpt lat="44.11897" lon="2.26601">
        <ele>290.94</ele>
        <time>2021-05-02T13:56:37Z</time>
      </trkpt>
      <trkpt lat="44.11898" lon="2.26596">
        <ele>290.46</ele>
        <time>2021-05-02T13:56:41Z</time>
      </trkpt>
      <trkpt lat="44.11902" lon="2.26592">
        <ele>289.49</ele>
        <time>2021-05-02T13:56:57Z</time>
      </trkpt>
      <trkpt lat="44.11904" lon="2.26585">
        <ele>289.01</ele>
        <time>2021-05-02T13:57:05Z</time>
      </trkpt>
      <trkpt lat="44.11901" lon="2.26572">
        <ele>289.97</ele>
        <time>2021-05-02T13:57:19Z</time>
      </trkpt>
      <trkpt lat="44.11895" lon="2.2657">
        <ele>290.46</ele>
        <time>2021-05-02T13:57:37Z</time>
      </trkpt>
      <trkpt lat="44.11889" lon="2.2656">
        <ele>290.94</ele>
        <time>2021-05-02T13:57:50Z</time>
      </trkpt>
      <trkpt lat="44.11885" lon="2.26552">
        <ele>292.86</ele>
        <time>2021-05-02T13:58:06Z</time>
      </trkpt>
      <trkpt lat="44.11883" lon="2.26543">
        <ele>295.26</ele>
        <time>2021-05-02T13:58:20Z</time>
      </trkpt>
      <trkpt lat="44.11879" lon="2.26539">
        <ele>298.63</ele>
        <time>2021-05-02T13:58:33Z</time>
      </trkpt>
      <trkpt lat="44.11875" lon="2.26527">
        <ele>301.03</ele>
        <time>2021-05-02T13:58:48Z</time>
      </trkpt>
      <trkpt lat="44.11871" lon="2.26518">
        <ele>302.95</ele>
        <time>2021-05-02T13:59:02Z</time>
      </trkpt>
      <trkpt lat="44.11864" lon="2.26512">
        <ele>303.91</ele>
        <time>2021-05-02T13:59:14Z</time>
      </trkpt>
      <trkpt lat="44.11861" lon="2.26505">
        <ele>307.28</ele>
        <time>2021-05-02T13:59:30Z</time>
      </trkpt>
      <trkpt lat="44.11859" lon="2.26492">
        <ele>309.68</ele>
        <time>2021-05-02T13:59:46Z</time>
      </trkpt>
      <trkpt lat="44.11848" lon="2.26484">
        <ele>311.6</ele>
        <time>2021-05-02T14:00:02Z</time>
      </trkpt>
      <trkpt lat="44.11846" lon="2.26479">
        <ele>311.6</ele>
        <time>2021-05-02T14:00:18Z</time>
      </trkpt>
      <trkpt lat="44.11845" lon="2.26479">
        <ele>310.16</ele>
        <time>2021-05-02T14:00:23Z</time>
      </trkpt>
      <trkpt lat="44.11841" lon="2.26482">
        <ele>306.8</ele>
        <time>2021-05-02T14:00:39Z</time>
      </trkpt>
      <trkpt lat="44.11839" lon="2.26473">
        <ele>304.39</ele>
        <time>2021-05-02T14:00:56Z</time>
      </trkpt>
      <trkpt lat="44.11845" lon="2.26467">
        <ele>301.99</ele>
        <time>2021-05-02T14:01:08Z</time>
      </trkpt>
      <trkpt lat="44.11841" lon="2.26456">
        <ele>302.95</ele>
        <time>2021-05-02T14:01:24Z</time>
      </trkpt>
      <trkpt lat="44.11834" lon="2.26447">
        <ele>304.39</ele>
        <time>2021-05-02T14:01:38Z</time>
      </trkpt>
      <trkpt lat="44.11821" lon="2.26437">
        <ele>301.03</ele>
        <time>2021-05-02T14:01:55Z</time>
      </trkpt>
      <trkpt lat="44.11817" lon="2.26432">
        <ele>299.59</ele>
        <time>2021-05-02T14:02:10Z</time>
      </trkpt>
      <trkpt lat="44.11822" lon="2.26431">
        <ele>296.7</ele>
        <time>2021-05-02T14:02:28Z</time>
      </trkpt>
      <trkpt lat="44.11828" lon="2.26421">
        <ele>294.3</ele>
        <time>2021-05-02T14:02:42Z</time>
      </trkpt>
      <trkpt lat="44.11827" lon="2.26409">
        <ele>291.9</ele>
        <time>2021-05-02T14:02:56Z</time>
      </trkpt>
      <trkpt lat="44.11827" lon="2.26401">
        <ele>291.9</ele>
        <time>2021-05-02T14:03:03Z</time>
      </trkpt>
      <trkpt lat="44.11832" lon="2.26398">
        <ele>293.34</ele>
        <time>2021-05-02T14:03:12Z</time>
      </trkpt>
      <trkpt lat="44.11838" lon="2.26392">
        <ele>294.78</ele>
        <time>2021-05-02T14:03:20Z</time>
      </trkpt>
      <trkpt lat="44.11845" lon="2.26384">
        <ele>296.22</ele>
        <time>2021-05-02T14:03:28Z</time>
      </trkpt>
      <trkpt lat="44.11847" lon="2.26381">
        <ele>296.22</ele>
        <time>2021-05-02T14:03:32Z</time>
      </trkpt>
      <trkpt lat="44.1185" lon="2.2637">
        <ele>299.11</ele>
        <time>2021-05-02T14:03:44Z</time>
      </trkpt>
      <trkpt lat="44.11849" lon="2.26357">
        <ele>301.03</ele>
        <time>2021-05-02T14:03:56Z</time>
      </trkpt>
      <trkpt lat="44.11846" lon="2.26344">
        <ele>303.43</ele>
        <time>2021-05-02T14:04:11Z</time>
      </trkpt>
      <trkpt lat="44.11843" lon="2.26331">
        <ele>306.8</ele>
        <time>2021-05-02T14:04:26Z</time>
      </trkpt>
      <trkpt lat="44.11844" lon="2.26321">
        <ele>307.76</ele>
        <time>2021-05-02T14:04:35Z</time>
      </trkpt>
      <trkpt lat="44.11843" lon="2.26306">
        <ele>309.68</ele>
        <time>2021-05-02T14:04:50Z</time>
      </trkpt>
      <trkpt lat="44.11842" lon="2.26295">
        <ele>309.68</ele>
        <time>2021-05-02T14:05:05Z</time>
      </trkpt>
      <trkpt lat="44.11841" lon="2.26293">
        <ele>309.68</ele>
        <time>2021-05-02T14:05:21Z</time>
      </trkpt>
      <trkpt lat="44.11832" lon="2.26293">
        <ele>306.8</ele>
        <time>2021-05-02T14:05:35Z</time>
      </trkpt>
      <trkpt lat="44.11828" lon="2.2629">
        <ele>305.84</ele>
        <time>2021-05-02T14:05:51Z</time>
      </trkpt>
      <trkpt lat="44.11825" lon="2.26287">
        <ele>303.91</ele>
        <time>2021-05-02T14:06:07Z</time>
      </trkpt>
      <trkpt lat="44.11824" lon="2.26284">
        <ele>301.99</ele>
        <time>2021-05-02T14:06:22Z</time>
      </trkpt>
      <trkpt lat="44.1182" lon="2.26278">
        <ele>298.63</ele>
        <time>2021-05-02T14:06:39Z</time>
      </trkpt>
      <trkpt lat="44.11818" lon="2.26262">
        <ele>296.7</ele>
        <time>2021-05-02T14:06:57Z</time>
      </trkpt>
      <trkpt lat="44.11821" lon="2.26259">
        <ele>297.67</ele>
        <time>2021-05-02T14:07:02Z</time>
      </trkpt>
      <trkpt lat="44.11823" lon="2.2625">
        <ele>300.55</ele>
        <time>2021-05-02T14:07:15Z</time>
      </trkpt>
      <trkpt lat="44.11832" lon="2.26239">
        <ele>301.03</ele>
        <time>2021-05-02T14:07:30Z</time>
      </trkpt>
      <trkpt lat="44.11831" lon="2.26239">
        <ele>301.03</ele>
        <time>2021-05-02T14:07:58Z</time>
      </trkpt>
      <trkpt lat="44.11833" lon="2.26231">
        <ele>299.59</ele>
        <time>2021-05-02T14:08:08Z</time>
      </trkpt>
      <trkpt lat="44.11826" lon="2.26225">
        <ele>299.11</ele>
        <time>2021-05-02T14:08:20Z</time>
      </trkpt>
      <trkpt lat="44.1182" lon="2.26218">
        <ele>302.47</ele>
        <time>2021-05-02T14:08:32Z</time>
      </trkpt>
      <trkpt lat="44.11808" lon="2.26214">
        <ele>305.36</ele>
        <time>2021-05-02T14:08:47Z</time>
      </trkpt>
      <trkpt lat="44.118" lon="2.2621">
        <ele>306.32</ele>
        <time>2021-05-02T14:09:00Z</time>
      </trkpt>
      <trkpt lat="44.11797" lon="2.26206">
        <ele>302.95</ele>
        <time>2021-05-02T14:09:11Z</time>
      </trkpt>
      <trkpt lat="44.11799" lon="2.26187">
        <ele>301.03</ele>
        <time>2021-05-02T14:09:23Z</time>
      </trkpt>
      <trkpt lat="44.11803" lon="2.2618">
        <ele>302.47</ele>
        <time>2021-05-02T14:09:29Z</time>
      </trkpt>
      <trkpt lat="44.11805" lon="2.2617">
        <ele>304.88</ele>
        <time>2021-05-02T14:09:41Z</time>
      </trkpt>
      <trkpt lat="44.11808" lon="2.26166">
        <ele>304.88</ele>
        <time>2021-05-02T14:09:45Z</time>
      </trkpt>
      <trkpt lat="44.1181" lon="2.26163">
        <ele>303.43</ele>
        <time>2021-05-02T14:09:48Z</time>
      </trkpt>
      <trkpt lat="44.11809" lon="2.26148">
        <ele>301.03</ele>
        <time>2021-05-02T14:10:04Z</time>
      </trkpt>
      <trkpt lat="44.11807" lon="2.2614">
        <ele>298.63</ele>
        <time>2021-05-02T14:10:12Z</time>
      </trkpt>
      <trkpt lat="44.1181" lon="2.26119">
        <ele>297.18</ele>
        <time>2021-05-02T14:10:27Z</time>
      </trkpt>
      <trkpt lat="44.11811" lon="2.26103">
        <ele>294.3</ele>
        <time>2021-05-02T14:10:42Z</time>
      </trkpt>
      <trkpt lat="44.11812" lon="2.26101">
        <ele>294.3</ele>
        <time>2021-05-02T14:10:56Z</time>
      </trkpt>
      <trkpt lat="44.11808" lon="2.26094">
        <ele>292.38</ele>
        <time>2021-05-02T14:11:10Z</time>
      </trkpt>
      <trkpt lat="44.11806" lon="2.26092">
        <ele>292.38</ele>
        <time>2021-05-02T14:11:15Z</time>
      </trkpt>
      <trkpt lat="44.11802" lon="2.26086">
        <ele>295.74</ele>
        <time>2021-05-02T14:11:24Z</time>
      </trkpt>
      <trkpt lat="44.11796" lon="2.26081">
        <ele>296.22</ele>
        <time>2021-05-02T14:11:38Z</time>
      </trkpt>
      <trkpt lat="44.11796" lon="2.2608">
        <ele>295.26</ele>
        <time>2021-05-02T14:11:40Z</time>
      </trkpt>
      <trkpt lat="44.11792" lon="2.26078">
        <ele>296.7</ele>
        <time>2021-05-02T14:11:45Z</time>
      </trkpt>
      <trkpt lat="44.11789" lon="2.26072">
        <ele>297.18</ele>
        <time>2021-05-02T14:11:49Z</time>
      </trkpt>
      <trkpt lat="44.11789" lon="2.26058">
        <ele>299.59</ele>
        <time>2021-05-02T14:12:04Z</time>
      </trkpt>
      <trkpt lat="44.11785" lon="2.26055">
        <ele>299.59</ele>
        <time>2021-05-02T14:12:20Z</time>
      </trkpt>
      <trkpt lat="44.11781" lon="2.26054">
        <ele>297.18</ele>
        <time>2021-05-02T14:12:33Z</time>
      </trkpt>
      <trkpt lat="44.11777" lon="2.26051">
        <ele>294.3</ele>
        <time>2021-05-02T14:12:48Z</time>
      </trkpt>
      <trkpt lat="44.11774" lon="2.26047">
        <ele>291.9</ele>
        <time>2021-05-02T14:13:03Z</time>
      </trkpt>
      <trkpt lat="44.11759" lon="2.26045">
        <ele>292.86</ele>
        <time>2021-05-02T14:13:17Z</time>
      </trkpt>
      <trkpt lat="44.11742" lon="2.26039">
        <ele>291.9</ele>
        <time>2021-05-02T14:13:33Z</time>
      </trkpt>
      <trkpt lat="44.11732" lon="2.26037">
        <ele>291.42</ele>
        <time>2021-05-02T14:13:46Z</time>
      </trkpt>
      <trkpt lat="44.11726" lon="2.26028">
        <ele>290.94</ele>
        <time>2021-05-02T14:13:56Z</time>
      </trkpt>
      <trkpt lat="44.11731" lon="2.26018">
        <ele>290.94</ele>
        <time>2021-05-02T14:14:07Z</time>
      </trkpt>
      <trkpt lat="44.11737" lon="2.26002">
        <ele>290.94</ele>
        <time>2021-05-02T14:14:22Z</time>
      </trkpt>
      <trkpt lat="44.11746" lon="2.25985">
        <ele>291.9</ele>
        <time>2021-05-02T14:14:37Z</time>
      </trkpt>
      <trkpt lat="44.11756" lon="2.25969">
        <ele>293.34</ele>
        <time>2021-05-02T14:14:50Z</time>
      </trkpt>
      <trkpt lat="44.11767" lon="2.25958">
        <ele>293.82</ele>
        <time>2021-05-02T14:15:01Z</time>
      </trkpt>
      <trkpt lat="44.11777" lon="2.25942">
        <ele>292.86</ele>
        <time>2021-05-02T14:15:14Z</time>
      </trkpt>
      <trkpt lat="44.11791" lon="2.25932">
        <ele>290.94</ele>
        <time>2021-05-02T14:15:31Z</time>
      </trkpt>
      <trkpt lat="44.11801" lon="2.2591">
        <ele>289.97</ele>
        <time>2021-05-02T14:15:46Z</time>
      </trkpt>
      <trkpt lat="44.11801" lon="2.25897">
        <ele>289.97</ele>
        <time>2021-05-02T14:15:56Z</time>
      </trkpt>
      <trkpt lat="44.11804" lon="2.25885">
        <ele>289.97</ele>
        <time>2021-05-02T14:16:03Z</time>
      </trkpt>
      <trkpt lat="44.11806" lon="2.25876">
        <ele>289.97</ele>
        <time>2021-05-02T14:16:08Z</time>
      </trkpt>
      <trkpt lat="44.11811" lon="2.25858">
        <ele>289.97</ele>
        <time>2021-05-02T14:16:20Z</time>
      </trkpt>
      <trkpt lat="44.11811" lon="2.25857">
        <ele>289.97</ele>
        <time>2021-05-02T14:16:21Z</time>
      </trkpt>
      <trkpt lat="44.11821" lon="2.25832">
        <ele>289.97</ele>
        <time>2021-05-02T14:16:34Z</time>
      </trkpt>
      <trkpt lat="44.11821" lon="2.25827">
        <ele>289.97</ele>
        <time>2021-05-02T14:16:38Z</time>
      </trkpt>
      <trkpt lat="44.11825" lon="2.2581">
        <ele>289.97</ele>
        <time>2021-05-02T14:16:50Z</time>
      </trkpt>
      <trkpt lat="44.1183" lon="2.25791">
        <ele>289.97</ele>
        <time>2021-05-02T14:17:04Z</time>
      </trkpt>
      <trkpt lat="44.11831" lon="2.25788">
        <ele>289.97</ele>
        <time>2021-05-02T14:17:06Z</time>
      </trkpt>
      <trkpt lat="44.11839" lon="2.25768">
        <ele>289.97</ele>
        <time>2021-05-02T14:17:20Z</time>
      </trkpt>
      <trkpt lat="44.11846" lon="2.25748">
        <ele>290.94</ele>
        <time>2021-05-02T14:17:31Z</time>
      </trkpt>
      <trkpt lat="44.11856" lon="2.25729">
        <ele>289.97</ele>
        <time>2021-05-02T14:17:45Z</time>
      </trkpt>
      <trkpt lat="44.11857" lon="2.25715">
        <ele>289.97</ele>
        <time>2021-05-02T14:17:57Z</time>
      </trkpt>
      <trkpt lat="44.11864" lon="2.25704">
        <ele>289.97</ele>
        <time>2021-05-02T14:18:09Z</time>
      </trkpt>
      <trkpt lat="44.11875" lon="2.2569">
        <ele>289.97</ele>
        <time>2021-05-02T14:18:22Z</time>
      </trkpt>
      <trkpt lat="44.1188" lon="2.25682">
        <ele>289.97</ele>
        <time>2021-05-02T14:18:36Z</time>
      </trkpt>
      <trkpt lat="44.11884" lon="2.25672">
        <ele>290.46</ele>
        <time>2021-05-02T14:18:54Z</time>
      </trkpt>
      <trkpt lat="44.1189" lon="2.25655">
        <ele>290.46</ele>
        <time>2021-05-02T14:19:08Z</time>
      </trkpt>
      <trkpt lat="44.11898" lon="2.25637">
        <ele>290.46</ele>
        <time>2021-05-02T14:19:20Z</time>
      </trkpt>
      <trkpt lat="44.11899" lon="2.25616">
        <ele>290.46</ele>
        <time>2021-05-02T14:19:34Z</time>
      </trkpt>
      <trkpt lat="44.11901" lon="2.25603">
        <ele>290.46</ele>
        <time>2021-05-02T14:19:43Z</time>
      </trkpt>
      <trkpt lat="44.11917" lon="2.25577">
        <ele>290.46</ele>
        <time>2021-05-02T14:19:59Z</time>
      </trkpt>
      <trkpt lat="44.1192" lon="2.2556">
        <ele>290.46</ele>
        <time>2021-05-02T14:20:12Z</time>
      </trkpt>
      <trkpt lat="44.11923" lon="2.25538">
        <ele>290.46</ele>
        <time>2021-05-02T14:20:26Z</time>
      </trkpt>
      <trkpt lat="44.11924" lon="2.25532">
        <ele>290.46</ele>
        <time>2021-05-02T14:20:30Z</time>
      </trkpt>
      <trkpt lat="44.11925" lon="2.25512">
        <ele>290.46</ele>
        <time>2021-05-02T14:20:42Z</time>
      </trkpt>
      <trkpt lat="44.11923" lon="2.25493">
        <ele>290.46</ele>
        <time>2021-05-02T14:20:55Z</time>
      </trkpt>
      <trkpt lat="44.11923" lon="2.25491">
        <ele>290.46</ele>
        <time>2021-05-02T14:20:56Z</time>
      </trkpt>
      <trkpt lat="44.11924" lon="2.25484">
        <ele>290.46</ele>
        <time>2021-05-02T14:21:00Z</time>
      </trkpt>
      <trkpt lat="44.11924" lon="2.25464">
        <ele>290.46</ele>
        <time>2021-05-02T14:21:13Z</time>
      </trkpt>
      <trkpt lat="44.11923" lon="2.25447">
        <ele>290.46</ele>
        <time>2021-05-02T14:21:24Z</time>
      </trkpt>
      <trkpt lat="44.1192" lon="2.25425">
        <ele>290.46</ele>
        <time>2021-05-02T14:21:39Z</time>
      </trkpt>
      <trkpt lat="44.11918" lon="2.25402">
        <ele>290.46</ele>
        <time>2021-05-02T14:21:53Z</time>
      </trkpt>
      <trkpt lat="44.11915" lon="2.25383">
        <ele>289.97</ele>
        <time>2021-05-02T14:22:08Z</time>
      </trkpt>
      <trkpt lat="44.11913" lon="2.25365">
        <ele>289.97</ele>
        <time>2021-05-02T14:22:23Z</time>
      </trkpt>
      <trkpt lat="44.1191" lon="2.25359">
        <ele>289.97</ele>
        <time>2021-05-02T14:22:29Z</time>
      </trkpt>
      <trkpt lat="44.11897" lon="2.25327">
        <ele>291.42</ele>
        <time>2021-05-02T14:22:48Z</time>
      </trkpt>
      <trkpt lat="44.11897" lon="2.25318">
        <ele>291.42</ele>
        <time>2021-05-02T14:22:59Z</time>
      </trkpt>
      <trkpt lat="44.11898" lon="2.25314">
        <ele>291.42</ele>
        <time>2021-05-02T14:23:11Z</time>
      </trkpt>
      <trkpt lat="44.11897" lon="2.25302">
        <ele>291.42</ele>
        <time>2021-05-02T14:23:28Z</time>
      </trkpt>
      <trkpt lat="44.11897" lon="2.25298">
        <ele>290.46</ele>
        <time>2021-05-02T14:23:31Z</time>
      </trkpt>
      <trkpt lat="44.11904" lon="2.25276">
        <ele>289.49</ele>
        <time>2021-05-02T14:23:45Z</time>
      </trkpt>
      <trkpt lat="44.11904" lon="2.25272">
        <ele>289.01</ele>
        <time>2021-05-02T14:23:47Z</time>
      </trkpt>
      <trkpt lat="44.1191" lon="2.25244">
        <ele>286.61</ele>
        <time>2021-05-02T14:24:04Z</time>
      </trkpt>
      <trkpt lat="44.11919" lon="2.25219">
        <ele>285.65</ele>
        <time>2021-05-02T14:24:20Z</time>
      </trkpt>
      <trkpt lat="44.11923" lon="2.25192">
        <ele>285.17</ele>
        <time>2021-05-02T14:24:35Z</time>
      </trkpt>
      <trkpt lat="44.11922" lon="2.25177">
        <ele>285.17</ele>
        <time>2021-05-02T14:24:46Z</time>
      </trkpt>
      <trkpt lat="44.11924" lon="2.25173">
        <ele>285.17</ele>
        <time>2021-05-02T14:24:49Z</time>
      </trkpt>
      <trkpt lat="44.11927" lon="2.25166">
        <ele>285.17</ele>
        <time>2021-05-02T14:24:54Z</time>
      </trkpt>
      <trkpt lat="44.11932" lon="2.25152">
        <ele>285.17</ele>
        <time>2021-05-02T14:25:02Z</time>
      </trkpt>
      <trkpt lat="44.11942" lon="2.25126">
        <ele>285.17</ele>
        <time>2021-05-02T14:25:17Z</time>
      </trkpt>
      <trkpt lat="44.1195" lon="2.25107">
        <ele>284.69</ele>
        <time>2021-05-02T14:25:29Z</time>
      </trkpt>
      <trkpt lat="44.11952" lon="2.251">
        <ele>284.69</ele>
        <time>2021-05-02T14:25:33Z</time>
      </trkpt>
      <trkpt lat="44.11956" lon="2.25076">
        <ele>284.69</ele>
        <time>2021-05-02T14:25:47Z</time>
      </trkpt>
      <trkpt lat="44.11957" lon="2.25073">
        <ele>286.13</ele>
        <time>2021-05-02T14:25:49Z</time>
      </trkpt>
      <trkpt lat="44.11971" lon="2.25062">
        <ele>286.13</ele>
        <time>2021-05-02T14:26:01Z</time>
      </trkpt>
      <trkpt lat="44.11989" lon="2.25051">
        <ele>286.13</ele>
        <time>2021-05-02T14:26:16Z</time>
      </trkpt>
      <trkpt lat="44.11999" lon="2.25041">
        <ele>285.17</ele>
        <time>2021-05-02T14:26:29Z</time>
      </trkpt>
      <trkpt lat="44.12013" lon="2.2503">
        <ele>285.17</ele>
        <time>2021-05-02T14:26:45Z</time>
      </trkpt>
      <trkpt lat="44.12029" lon="2.25027">
        <ele>284.69</ele>
        <time>2021-05-02T14:26:57Z</time>
      </trkpt>
      <trkpt lat="44.12043" lon="2.25028">
        <ele>284.21</ele>
        <time>2021-05-02T14:27:09Z</time>
      </trkpt>
      <trkpt lat="44.12057" lon="2.25023">
        <ele>284.21</ele>
        <time>2021-05-02T14:27:16Z</time>
      </trkpt>
      <trkpt lat="44.12078" lon="2.25021">
        <ele>283.73</ele>
        <time>2021-05-02T14:27:32Z</time>
      </trkpt>
      <trkpt lat="44.12097" lon="2.2502">
        <ele>283.73</ele>
        <time>2021-05-02T14:27:48Z</time>
      </trkpt>
      <trkpt lat="44.1211" lon="2.2502">
        <ele>283.73</ele>
        <time>2021-05-02T14:27:58Z</time>
      </trkpt>
      <trkpt lat="44.12121" lon="2.25023">
        <ele>283.73</ele>
        <time>2021-05-02T14:28:08Z</time>
      </trkpt>
      <trkpt lat="44.12139" lon="2.25031">
        <ele>283.25</ele>
        <time>2021-05-02T14:28:22Z</time>
      </trkpt>
      <trkpt lat="44.12153" lon="2.25042">
        <ele>283.25</ele>
        <time>2021-05-02T14:28:34Z</time>
      </trkpt>
      <trkpt lat="44.12172" lon="2.25053">
        <ele>283.25</ele>
        <time>2021-05-02T14:28:50Z</time>
      </trkpt>
      <trkpt lat="44.12187" lon="2.25061">
        <ele>283.25</ele>
        <time>2021-05-02T14:29:02Z</time>
      </trkpt>
      <trkpt lat="44.1219" lon="2.25062">
        <ele>283.25</ele>
        <time>2021-05-02T14:29:04Z</time>
      </trkpt>
      <trkpt lat="44.12208" lon="2.25079">
        <ele>283.25</ele>
        <time>2021-05-02T14:29:21Z</time>
      </trkpt>
      <trkpt lat="44.12212" lon="2.25083">
        <ele>283.25</ele>
        <time>2021-05-02T14:29:25Z</time>
      </trkpt>
      <trkpt lat="44.12217" lon="2.25086">
        <ele>283.25</ele>
        <time>2021-05-02T14:29:29Z</time>
      </trkpt>
      <trkpt lat="44.12235" lon="2.25098">
        <ele>283.25</ele>
        <time>2021-05-02T14:29:44Z</time>
      </trkpt>
      <trkpt lat="44.12248" lon="2.25112">
        <ele>283.25</ele>
        <time>2021-05-02T14:29:57Z</time>
      </trkpt>
      <trkpt lat="44.12261" lon="2.25118">
        <ele>285.17</ele>
        <time>2021-05-02T14:30:10Z</time>
      </trkpt>
      <trkpt lat="44.1227" lon="2.25127">
        <ele>287.57</ele>
        <time>2021-05-02T14:30:23Z</time>
      </trkpt>
      <trkpt lat="44.12273" lon="2.25127">
        <ele>288.05</ele>
        <time>2021-05-02T14:30:27Z</time>
      </trkpt>
      <trkpt lat="44.12288" lon="2.25147">
        <ele>289.49</ele>
        <time>2021-05-02T14:30:43Z</time>
      </trkpt>
      <trkpt lat="44.12289" lon="2.25154">
        <ele>289.97</ele>
        <time>2021-05-02T14:30:47Z</time>
      </trkpt>
      <trkpt lat="44.12289" lon="2.25172">
        <ele>290.94</ele>
        <time>2021-05-02T14:30:58Z</time>
      </trkpt>
      <trkpt lat="44.12297" lon="2.25197">
        <ele>292.86</ele>
        <time>2021-05-02T14:31:14Z</time>
      </trkpt>
      <trkpt lat="44.12309" lon="2.25206">
        <ele>293.82</ele>
        <time>2021-05-02T14:31:26Z</time>
      </trkpt>
      <trkpt lat="44.12323" lon="2.25215">
        <ele>295.74</ele>
        <time>2021-05-02T14:31:41Z</time>
      </trkpt>
      <trkpt lat="44.12328" lon="2.25216">
        <ele>296.22</ele>
        <time>2021-05-02T14:31:45Z</time>
      </trkpt>
      <trkpt lat="44.12344" lon="2.25222">
        <ele>298.15</ele>
        <time>2021-05-02T14:31:59Z</time>
      </trkpt>
      <trkpt lat="44.1235" lon="2.25226">
        <ele>298.63</ele>
        <time>2021-05-02T14:32:05Z</time>
      </trkpt>
      <trkpt lat="44.12358" lon="2.25234">
        <ele>299.59</ele>
        <time>2021-05-02T14:32:14Z</time>
      </trkpt>
      <trkpt lat="44.1236" lon="2.25238">
        <ele>300.55</ele>
        <time>2021-05-02T14:32:17Z</time>
      </trkpt>
      <trkpt lat="44.12365" lon="2.25244">
        <ele>301.03</ele>
        <time>2021-05-02T14:32:23Z</time>
      </trkpt>
      <trkpt lat="44.12367" lon="2.25244">
        <ele>301.03</ele>
        <time>2021-05-02T14:32:24Z</time>
      </trkpt>
      <trkpt lat="44.12379" lon="2.25256">
        <ele>302.95</ele>
        <time>2021-05-02T14:32:38Z</time>
      </trkpt>
      <trkpt lat="44.12381" lon="2.25258">
        <ele>303.43</ele>
        <time>2021-05-02T14:32:40Z</time>
      </trkpt>
      <trkpt lat="44.12396" lon="2.25273">
        <ele>304.88</ele>
        <time>2021-05-02T14:32:57Z</time>
      </trkpt>
      <trkpt lat="44.12409" lon="2.25284">
        <ele>306.32</ele>
        <time>2021-05-02T14:33:13Z</time>
      </trkpt>
      <trkpt lat="44.1241" lon="2.25285">
        <ele>306.8</ele>
        <time>2021-05-02T14:33:14Z</time>
      </trkpt>
      <trkpt lat="44.12412" lon="2.25297">
        <ele>307.28</ele>
        <time>2021-05-02T14:33:21Z</time>
      </trkpt>
      <trkpt lat="44.12417" lon="2.25325">
        <ele>309.2</ele>
        <time>2021-05-02T14:33:40Z</time>
      </trkpt>
      <trkpt lat="44.12419" lon="2.2533">
        <ele>309.68</ele>
        <time>2021-05-02T14:33:44Z</time>
      </trkpt>
      <trkpt lat="44.12421" lon="2.25333">
        <ele>310.16</ele>
        <time>2021-05-02T14:33:47Z</time>
      </trkpt>
      <trkpt lat="44.12431" lon="2.25352">
        <ele>312.09</ele>
        <time>2021-05-02T14:34:04Z</time>
      </trkpt>
      <trkpt lat="44.12439" lon="2.2537">
        <ele>314.01</ele>
        <time>2021-05-02T14:34:19Z</time>
      </trkpt>
      <trkpt lat="44.12449" lon="2.25392">
        <ele>315.93</ele>
        <time>2021-05-02T14:34:34Z</time>
      </trkpt>
      <trkpt lat="44.12458" lon="2.25412">
        <ele>317.85</ele>
        <time>2021-05-02T14:34:49Z</time>
      </trkpt>
      <trkpt lat="44.12468" lon="2.25434">
        <ele>319.78</ele>
        <time>2021-05-02T14:35:05Z</time>
      </trkpt>
      <trkpt lat="44.1247" lon="2.25442">
        <ele>321.22</ele>
        <time>2021-05-02T14:35:10Z</time>
      </trkpt>
      <trkpt lat="44.12475" lon="2.25465">
        <ele>322.18</ele>
        <time>2021-05-02T14:35:26Z</time>
      </trkpt>
      <trkpt lat="44.12481" lon="2.25491">
        <ele>324.1</ele>
        <time>2021-05-02T14:35:43Z</time>
      </trkpt>
      <trkpt lat="44.12481" lon="2.25501">
        <ele>325.06</ele>
        <time>2021-05-02T14:35:50Z</time>
      </trkpt>
      <trkpt lat="44.12476" lon="2.25522">
        <ele>327.47</ele>
        <time>2021-05-02T14:36:07Z</time>
      </trkpt>
      <trkpt lat="44.12473" lon="2.25539">
        <ele>328.91</ele>
        <time>2021-05-02T14:36:18Z</time>
      </trkpt>
      <trkpt lat="44.12476" lon="2.25543">
        <ele>329.39</ele>
        <time>2021-05-02T14:36:22Z</time>
      </trkpt>
      <trkpt lat="44.12488" lon="2.25537">
        <ele>331.31</ele>
        <time>2021-05-02T14:36:37Z</time>
      </trkpt>
      <trkpt lat="44.12488" lon="2.25537">
        <ele>330.83</ele>
        <time>2021-05-02T14:36:42Z</time>
      </trkpt>
      <trkpt lat="44.12488" lon="2.25537">
        <ele>329.39</ele>
        <time>2021-05-02T14:36:43Z</time>
      </trkpt>
      <trkpt lat="44.12483" lon="2.25542">
        <ele>337.08</ele>
        <time>2021-05-02T14:48:06Z</time>
      </trkpt>
      <trkpt lat="44.12484" lon="2.25543">
        <ele>337.08</ele>
        <time>2021-05-02T14:48:07Z</time>
      </trkpt>
      <trkpt lat="44.12493" lon="2.25548">
        <ele>337.08</ele>
        <time>2021-05-02T14:48:15Z</time>
      </trkpt>
      <trkpt lat="44.12493" lon="2.25539">
        <ele>338.52</ele>
        <time>2021-05-02T14:48:18Z</time>
      </trkpt>
      <trkpt lat="44.12493" lon="2.25537">
        <ele>338.52</ele>
        <time>2021-05-02T14:48:19Z</time>
      </trkpt>
      <trkpt lat="44.12501" lon="2.25505">
        <ele>339</ele>
        <time>2021-05-02T14:48:38Z</time>
      </trkpt>
      <trkpt lat="44.12516" lon="2.25482">
        <ele>337.08</ele>
        <time>2021-05-02T14:48:57Z</time>
      </trkpt>
      <trkpt lat="44.12532" lon="2.2547">
        <ele>334.2</ele>
        <time>2021-05-02T14:49:18Z</time>
      </trkpt>
      <trkpt lat="44.12526" lon="2.25479">
        <ele>331.31</ele>
        <time>2021-05-02T14:49:33Z</time>
      </trkpt>
      <trkpt lat="44.12524" lon="2.25489">
        <ele>328.43</ele>
        <time>2021-05-02T14:49:45Z</time>
      </trkpt>
      <trkpt lat="44.12523" lon="2.255">
        <ele>325.06</ele>
        <time>2021-05-02T14:49:57Z</time>
      </trkpt>
      <trkpt lat="44.12521" lon="2.25514">
        <ele>322.18</ele>
        <time>2021-05-02T14:50:10Z</time>
      </trkpt>
      <trkpt lat="44.1252" lon="2.25528">
        <ele>318.81</ele>
        <time>2021-05-02T14:50:23Z</time>
      </trkpt>
      <trkpt lat="44.12524" lon="2.25536">
        <ele>315.45</ele>
        <time>2021-05-02T14:50:37Z</time>
      </trkpt>
      <trkpt lat="44.12528" lon="2.25542">
        <ele>312.57</ele>
        <time>2021-05-02T14:50:50Z</time>
      </trkpt>
      <trkpt lat="44.1253" lon="2.25537">
        <ele>309.2</ele>
        <time>2021-05-02T14:51:04Z</time>
      </trkpt>
      <trkpt lat="44.12536" lon="2.25531">
        <ele>305.36</ele>
        <time>2021-05-02T14:51:20Z</time>
      </trkpt>
      <trkpt lat="44.1254" lon="2.25527">
        <ele>303.43</ele>
        <time>2021-05-02T14:51:33Z</time>
      </trkpt>
      <trkpt lat="44.12547" lon="2.25522">
        <ele>299.59</ele>
        <time>2021-05-02T14:51:46Z</time>
      </trkpt>
      <trkpt lat="44.12555" lon="2.25523">
        <ele>296.7</ele>
        <time>2021-05-02T14:52:04Z</time>
      </trkpt>
      <trkpt lat="44.12555" lon="2.25534">
        <ele>293.34</ele>
        <time>2021-05-02T14:52:18Z</time>
      </trkpt>
      <trkpt lat="44.12558" lon="2.25548">
        <ele>289.97</ele>
        <time>2021-05-02T14:52:34Z</time>
      </trkpt>
      <trkpt lat="44.12564" lon="2.25547">
        <ele>286.61</ele>
        <time>2021-05-02T14:52:50Z</time>
      </trkpt>
      <trkpt lat="44.12569" lon="2.25537">
        <ele>284.21</ele>
        <time>2021-05-02T14:53:07Z</time>
      </trkpt>
      <trkpt lat="44.12571" lon="2.25538">
        <ele>281.8</ele>
        <time>2021-05-02T14:53:19Z</time>
      </trkpt>
      <trkpt lat="44.12573" lon="2.25547">
        <ele>278.44</ele>
        <time>2021-05-02T14:53:33Z</time>
      </trkpt>
      <trkpt lat="44.12576" lon="2.25558">
        <ele>276.04</ele>
        <time>2021-05-02T14:53:46Z</time>
      </trkpt>
      <trkpt lat="44.12581" lon="2.2557">
        <ele>273.15</ele>
        <time>2021-05-02T14:53:59Z</time>
      </trkpt>
      <trkpt lat="44.12583" lon="2.25574">
        <ele>272.67</ele>
        <time>2021-05-02T14:54:04Z</time>
      </trkpt>
      <trkpt lat="44.12585" lon="2.25592">
        <ele>270.27</ele>
        <time>2021-05-02T14:54:21Z</time>
      </trkpt>
      <trkpt lat="44.12581" lon="2.2561">
        <ele>268.83</ele>
        <time>2021-05-02T14:54:35Z</time>
      </trkpt>
      <trkpt lat="44.1258" lon="2.25625">
        <ele>267.86</ele>
        <time>2021-05-02T14:54:44Z</time>
      </trkpt>
      <trkpt lat="44.1259" lon="2.25651">
        <ele>267.38</ele>
        <time>2021-05-02T14:55:03Z</time>
      </trkpt>
      <trkpt lat="44.12609" lon="2.25661">
        <ele>267.38</ele>
        <time>2021-05-02T14:55:22Z</time>
      </trkpt>
      <trkpt lat="44.12629" lon="2.25672">
        <ele>267.38</ele>
        <time>2021-05-02T14:55:42Z</time>
      </trkpt>
      <trkpt lat="44.12644" lon="2.25678">
        <ele>267.38</ele>
        <time>2021-05-02T14:55:58Z</time>
      </trkpt>
      <trkpt lat="44.12647" lon="2.25679">
        <ele>267.38</ele>
        <time>2021-05-02T14:56:01Z</time>
      </trkpt>
      <trkpt lat="44.12657" lon="2.25677">
        <ele>266.9</ele>
        <time>2021-05-02T14:56:09Z</time>
      </trkpt>
      <trkpt lat="44.12663" lon="2.25672">
        <ele>266.9</ele>
        <time>2021-05-02T14:56:17Z</time>
      </trkpt>
      <trkpt lat="44.12678" lon="2.25655">
        <ele>266.9</ele>
        <time>2021-05-02T14:56:34Z</time>
      </trkpt>
      <trkpt lat="44.12688" lon="2.25647">
        <ele>268.35</ele>
        <time>2021-05-02T14:56:42Z</time>
      </trkpt>
      <trkpt lat="44.12705" lon="2.2564">
        <ele>268.35</ele>
        <time>2021-05-02T14:56:58Z</time>
      </trkpt>
      <trkpt lat="44.12707" lon="2.25639">
        <ele>268.83</ele>
        <time>2021-05-02T14:57:01Z</time>
      </trkpt>
      <trkpt lat="44.12726" lon="2.25643">
        <ele>270.75</ele>
        <time>2021-05-02T14:57:18Z</time>
      </trkpt>
      <trkpt lat="44.12737" lon="2.2565">
        <ele>271.71</ele>
        <time>2021-05-02T14:57:33Z</time>
      </trkpt>
      <trkpt lat="44.12752" lon="2.25661">
        <ele>274.11</ele>
        <time>2021-05-02T14:57:49Z</time>
      </trkpt>
      <trkpt lat="44.12765" lon="2.25669">
        <ele>276.52</ele>
        <time>2021-05-02T14:58:07Z</time>
      </trkpt>
      <trkpt lat="44.1278" lon="2.25679">
        <ele>277.48</ele>
        <time>2021-05-02T14:58:25Z</time>
      </trkpt>
      <trkpt lat="44.12797" lon="2.25686">
        <ele>278.92</ele>
        <time>2021-05-02T14:58:44Z</time>
      </trkpt>
      <trkpt lat="44.12817" lon="2.25698">
        <ele>279.4</ele>
        <time>2021-05-02T14:59:01Z</time>
      </trkpt>
      <trkpt lat="44.12832" lon="2.25706">
        <ele>280.36</ele>
        <time>2021-05-02T14:59:15Z</time>
      </trkpt>
      <trkpt lat="44.12844" lon="2.25713">
        <ele>280.84</ele>
        <time>2021-05-02T14:59:29Z</time>
      </trkpt>
      <trkpt lat="44.12856" lon="2.25718">
        <ele>282.28</ele>
        <time>2021-05-02T14:59:47Z</time>
      </trkpt>
      <trkpt lat="44.12857" lon="2.25712">
        <ele>283.73</ele>
        <time>2021-05-02T15:00:05Z</time>
      </trkpt>
      <trkpt lat="44.12851" lon="2.25707">
        <ele>286.13</ele>
        <time>2021-05-02T15:00:18Z</time>
      </trkpt>
      <trkpt lat="44.12848" lon="2.25712">
        <ele>289.01</ele>
        <time>2021-05-02T15:00:31Z</time>
      </trkpt>
      <trkpt lat="44.12844" lon="2.25717">
        <ele>290.94</ele>
        <time>2021-05-02T15:00:46Z</time>
      </trkpt>
      <trkpt lat="44.12853" lon="2.25727">
        <ele>292.38</ele>
        <time>2021-05-02T15:01:02Z</time>
      </trkpt>
      <trkpt lat="44.12861" lon="2.25736">
        <ele>294.3</ele>
        <time>2021-05-02T15:01:17Z</time>
      </trkpt>
      <trkpt lat="44.12871" lon="2.25742">
        <ele>296.22</ele>
        <time>2021-05-02T15:01:35Z</time>
      </trkpt>
      <trkpt lat="44.12885" lon="2.25746">
        <ele>298.63</ele>
        <time>2021-05-02T15:01:52Z</time>
      </trkpt>
      <trkpt lat="44.12897" lon="2.25752">
        <ele>301.03</ele>
        <time>2021-05-02T15:02:08Z</time>
      </trkpt>
      <trkpt lat="44.1291" lon="2.25763">
        <ele>301.51</ele>
        <time>2021-05-02T15:02:23Z</time>
      </trkpt>
      <trkpt lat="44.12918" lon="2.25773">
        <ele>303.91</ele>
        <time>2021-05-02T15:02:36Z</time>
      </trkpt>
      <trkpt lat="44.12927" lon="2.25781">
        <ele>306.32</ele>
        <time>2021-05-02T15:02:51Z</time>
      </trkpt>
      <trkpt lat="44.12932" lon="2.25789">
        <ele>308.24</ele>
        <time>2021-05-02T15:03:05Z</time>
      </trkpt>
      <trkpt lat="44.12943" lon="2.25804">
        <ele>310.16</ele>
        <time>2021-05-02T15:03:22Z</time>
      </trkpt>
      <trkpt lat="44.12946" lon="2.25822">
        <ele>311.6</ele>
        <time>2021-05-02T15:03:35Z</time>
      </trkpt>
      <trkpt lat="44.12947" lon="2.25829">
        <ele>312.57</ele>
        <time>2021-05-02T15:03:42Z</time>
      </trkpt>
      <trkpt lat="44.1295" lon="2.25844">
        <ele>314.01</ele>
        <time>2021-05-02T15:03:56Z</time>
      </trkpt>
      <trkpt lat="44.1295" lon="2.2586">
        <ele>317.37</ele>
        <time>2021-05-02T15:04:11Z</time>
      </trkpt>
      <trkpt lat="44.12951" lon="2.25875">
        <ele>318.33</ele>
        <time>2021-05-02T15:04:25Z</time>
      </trkpt>
      <trkpt lat="44.12958" lon="2.25895">
        <ele>320.26</ele>
        <time>2021-05-02T15:04:41Z</time>
      </trkpt>
      <trkpt lat="44.1296" lon="2.25913">
        <ele>322.18</ele>
        <time>2021-05-02T15:04:56Z</time>
      </trkpt>
      <trkpt lat="44.12958" lon="2.25925">
        <ele>324.58</ele>
        <time>2021-05-02T15:05:10Z</time>
      </trkpt>
      <trkpt lat="44.12957" lon="2.25942">
        <ele>326.99</ele>
        <time>2021-05-02T15:05:25Z</time>
      </trkpt>
      <trkpt lat="44.12955" lon="2.25955">
        <ele>328.43</ele>
        <time>2021-05-02T15:05:38Z</time>
      </trkpt>
      <trkpt lat="44.12956" lon="2.2597">
        <ele>330.35</ele>
        <time>2021-05-02T15:05:52Z</time>
      </trkpt>
      <trkpt lat="44.12951" lon="2.25984">
        <ele>331.79</ele>
        <time>2021-05-02T15:06:07Z</time>
      </trkpt>
      <trkpt lat="44.12946" lon="2.25971">
        <ele>335.16</ele>
        <time>2021-05-02T15:06:24Z</time>
      </trkpt>
      <trkpt lat="44.12942" lon="2.25953">
        <ele>336.12</ele>
        <time>2021-05-02T15:06:40Z</time>
      </trkpt>
      <trkpt lat="44.12937" lon="2.25936">
        <ele>336.6</ele>
        <time>2021-05-02T15:06:53Z</time>
      </trkpt>
      <trkpt lat="44.12929" lon="2.25916">
        <ele>338.04</ele>
        <time>2021-05-02T15:07:10Z</time>
      </trkpt>
      <trkpt lat="44.12919" lon="2.25903">
        <ele>339.48</ele>
        <time>2021-05-02T15:07:23Z</time>
      </trkpt>
      <trkpt lat="44.12908" lon="2.25895">
        <ele>341.41</ele>
        <time>2021-05-02T15:07:37Z</time>
      </trkpt>
      <trkpt lat="44.12893" lon="2.25891">
        <ele>343.33</ele>
        <time>2021-05-02T15:07:52Z</time>
      </trkpt>
      <trkpt lat="44.1288" lon="2.25894">
        <ele>345.25</ele>
        <time>2021-05-02T15:08:04Z</time>
      </trkpt>
      <trkpt lat="44.12877" lon="2.25905">
        <ele>346.69</ele>
        <time>2021-05-02T15:08:17Z</time>
      </trkpt>
      <trkpt lat="44.12879" lon="2.25916">
        <ele>349.1</ele>
        <time>2021-05-02T15:08:31Z</time>
      </trkpt>
      <trkpt lat="44.12882" lon="2.25929">
        <ele>351.02</ele>
        <time>2021-05-02T15:08:44Z</time>
      </trkpt>
      <trkpt lat="44.12883" lon="2.25946">
        <ele>353.42</ele>
        <time>2021-05-02T15:08:57Z</time>
      </trkpt>
      <trkpt lat="44.12884" lon="2.25959">
        <ele>354.86</ele>
        <time>2021-05-02T15:09:08Z</time>
      </trkpt>
      <trkpt lat="44.12886" lon="2.25973">
        <ele>356.79</ele>
        <time>2021-05-02T15:09:22Z</time>
      </trkpt>
      <trkpt lat="44.12888" lon="2.25987">
        <ele>357.75</ele>
        <time>2021-05-02T15:09:34Z</time>
      </trkpt>
      <trkpt lat="44.1289" lon="2.26009">
        <ele>360.15</ele>
        <time>2021-05-02T15:09:51Z</time>
      </trkpt>
      <trkpt lat="44.12891" lon="2.26026">
        <ele>362.07</ele>
        <time>2021-05-02T15:10:05Z</time>
      </trkpt>
      <trkpt lat="44.1289" lon="2.26043">
        <ele>364.96</ele>
        <time>2021-05-02T15:10:19Z</time>
      </trkpt>
      <trkpt lat="44.12891" lon="2.2606">
        <ele>366.88</ele>
        <time>2021-05-02T15:10:34Z</time>
      </trkpt>
      <trkpt lat="44.1289" lon="2.26074">
        <ele>368.8</ele>
        <time>2021-05-02T15:10:48Z</time>
      </trkpt>
      <trkpt lat="44.12891" lon="2.26088">
        <ele>370.73</ele>
        <time>2021-05-02T15:11:00Z</time>
      </trkpt>
      <trkpt lat="44.12892" lon="2.26101">
        <ele>372.65</ele>
        <time>2021-05-02T15:11:14Z</time>
      </trkpt>
      <trkpt lat="44.12895" lon="2.26118">
        <ele>374.09</ele>
        <time>2021-05-02T15:11:31Z</time>
      </trkpt>
      <trkpt lat="44.12895" lon="2.26123">
        <ele>374.57</ele>
        <time>2021-05-02T15:11:57Z</time>
      </trkpt>
      <trkpt lat="44.12896" lon="2.2613">
        <ele>374.57</ele>
        <time>2021-05-02T15:12:16Z</time>
      </trkpt>
      <trkpt lat="44.12897" lon="2.26135">
        <ele>375.05</ele>
        <time>2021-05-02T15:12:41Z</time>
      </trkpt>
      <trkpt lat="44.12897" lon="2.26139">
        <ele>375.05</ele>
        <time>2021-05-02T15:13:05Z</time>
      </trkpt>
      <trkpt lat="44.12895" lon="2.26137">
        <ele>375.53</ele>
        <time>2021-05-02T15:13:35Z</time>
      </trkpt>
      <trkpt lat="44.12899" lon="2.26145">
        <ele>376.49</ele>
        <time>2021-05-02T15:14:02Z</time>
      </trkpt>
      <trkpt lat="44.12903" lon="2.26156">
        <ele>376.49</ele>
        <time>2021-05-02T15:14:20Z</time>
      </trkpt>
      <trkpt lat="44.12906" lon="2.26164">
        <ele>376.49</ele>
        <time>2021-05-02T15:14:36Z</time>
      </trkpt>
      <trkpt lat="44.12908" lon="2.26171">
        <ele>376.97</ele>
        <time>2021-05-02T15:14:56Z</time>
      </trkpt>
      <trkpt lat="44.12911" lon="2.26184">
        <ele>377.45</ele>
        <time>2021-05-02T15:15:16Z</time>
      </trkpt>
      <trkpt lat="44.12915" lon="2.26195">
        <ele>378.42</ele>
        <time>2021-05-02T15:15:32Z</time>
      </trkpt>
      <trkpt lat="44.12919" lon="2.2621">
        <ele>379.38</ele>
        <time>2021-05-02T15:15:47Z</time>
      </trkpt>
      <trkpt lat="44.12916" lon="2.26215">
        <ele>380.34</ele>
        <time>2021-05-02T15:16:01Z</time>
      </trkpt>
      <trkpt lat="44.12914" lon="2.26215">
        <ele>381.78</ele>
        <time>2021-05-02T15:16:18Z</time>
      </trkpt>
      <trkpt lat="44.12919" lon="2.26214">
        <ele>380.34</ele>
        <time>2021-05-02T15:16:39Z</time>
      </trkpt>
      <trkpt lat="44.1292" lon="2.26221">
        <ele>380.34</ele>
        <time>2021-05-02T15:16:56Z</time>
      </trkpt>
      <trkpt lat="44.12923" lon="2.26226">
        <ele>380.34</ele>
        <time>2021-05-02T15:17:18Z</time>
      </trkpt>
      <trkpt lat="44.12932" lon="2.26245">
        <ele>383.22</ele>
        <time>2021-05-02T15:17:35Z</time>
      </trkpt>
      <trkpt lat="44.12933" lon="2.26248">
        <ele>383.7</ele>
        <time>2021-05-02T15:17:37Z</time>
      </trkpt>
      <trkpt lat="44.12938" lon="2.26266">
        <ele>385.15</ele>
        <time>2021-05-02T15:17:51Z</time>
      </trkpt>
      <trkpt lat="44.12941" lon="2.2629">
        <ele>387.07</ele>
        <time>2021-05-02T15:18:07Z</time>
      </trkpt>
      <trkpt lat="44.12943" lon="2.26314">
        <ele>388.03</ele>
        <time>2021-05-02T15:18:22Z</time>
      </trkpt>
      <trkpt lat="44.12944" lon="2.26319">
        <ele>388.99</ele>
        <time>2021-05-02T15:18:25Z</time>
      </trkpt>
      <trkpt lat="44.12944" lon="2.26348">
        <ele>389.95</ele>
        <time>2021-05-02T15:18:43Z</time>
      </trkpt>
      <trkpt lat="44.12944" lon="2.26368">
        <ele>389.95</ele>
        <time>2021-05-02T15:18:55Z</time>
      </trkpt>
      <trkpt lat="44.12945" lon="2.26372">
        <ele>389.95</ele>
        <time>2021-05-02T15:18:58Z</time>
      </trkpt>
      <trkpt lat="44.12943" lon="2.26387">
        <ele>388.51</ele>
        <time>2021-05-02T15:19:13Z</time>
      </trkpt>
      <trkpt lat="44.12928" lon="2.264">
        <ele>401.97</ele>
        <time>2021-05-02T15:20:50Z</time>
      </trkpt>
      <trkpt lat="44.12928" lon="2.264">
        <ele>401.97</ele>
        <time>2021-05-02T15:20:51Z</time>
      </trkpt>
      <trkpt lat="44.12932" lon="2.26405">
        <ele>401.97</ele>
        <time>2021-05-02T15:20:59Z</time>
      </trkpt>
      <trkpt lat="44.12942" lon="2.26402">
        <ele>400.53</ele>
        <time>2021-05-02T15:21:02Z</time>
      </trkpt>
      <trkpt lat="44.12945" lon="2.26408">
        <ele>401.49</ele>
        <time>2021-05-02T15:21:06Z</time>
      </trkpt>
      <trkpt lat="44.12951" lon="2.26431">
        <ele>401.97</ele>
        <time>2021-05-02T15:21:23Z</time>
      </trkpt>
      <trkpt lat="44.12957" lon="2.26456">
        <ele>402.45</ele>
        <time>2021-05-02T15:21:40Z</time>
      </trkpt>
      <trkpt lat="44.1296" lon="2.26467">
        <ele>401.49</ele>
        <time>2021-05-02T15:21:48Z</time>
      </trkpt>
      <trkpt lat="44.12965" lon="2.26492">
        <ele>400.53</ele>
        <time>2021-05-02T15:22:07Z</time>
      </trkpt>
      <trkpt lat="44.12969" lon="2.26522">
        <ele>400.05</ele>
        <time>2021-05-02T15:22:25Z</time>
      </trkpt>
      <trkpt lat="44.12978" lon="2.2655">
        <ele>399.08</ele>
        <time>2021-05-02T15:22:39Z</time>
      </trkpt>
      <trkpt lat="44.1299" lon="2.2658">
        <ele>398.12</ele>
        <time>2021-05-02T15:22:57Z</time>
      </trkpt>
      <trkpt lat="44.12992" lon="2.26611">
        <ele>396.68</ele>
        <time>2021-05-02T15:23:17Z</time>
      </trkpt>
      <trkpt lat="44.12993" lon="2.26635">
        <ele>395.72</ele>
        <time>2021-05-02T15:23:34Z</time>
      </trkpt>
      <trkpt lat="44.12991" lon="2.26648">
        <ele>394.76</ele>
        <time>2021-05-02T15:23:44Z</time>
      </trkpt>
      <trkpt lat="44.12982" lon="2.26666">
        <ele>394.76</ele>
        <time>2021-05-02T15:23:59Z</time>
      </trkpt>
      <trkpt lat="44.12975" lon="2.26676">
        <ele>394.76</ele>
        <time>2021-05-02T15:24:14Z</time>
      </trkpt>
      <trkpt lat="44.12963" lon="2.26691">
        <ele>394.28</ele>
        <time>2021-05-02T15:24:29Z</time>
      </trkpt>
      <trkpt lat="44.12952" lon="2.26702">
        <ele>395.72</ele>
        <time>2021-05-02T15:24:42Z</time>
      </trkpt>
      <trkpt lat="44.12938" lon="2.26713">
        <ele>396.68</ele>
        <time>2021-05-02T15:24:59Z</time>
      </trkpt>
      <trkpt lat="44.12924" lon="2.2672">
        <ele>398.6</ele>
        <time>2021-05-02T15:25:15Z</time>
      </trkpt>
      <trkpt lat="44.12908" lon="2.26726">
        <ele>399.57</ele>
        <time>2021-05-02T15:25:32Z</time>
      </trkpt>
      <trkpt lat="44.12894" lon="2.26731">
        <ele>401.49</ele>
        <time>2021-05-02T15:25:48Z</time>
      </trkpt>
      <trkpt lat="44.12881" lon="2.26738">
        <ele>403.89</ele>
        <time>2021-05-02T15:26:03Z</time>
      </trkpt>
      <trkpt lat="44.12869" lon="2.26744">
        <ele>405.81</ele>
        <time>2021-05-02T15:26:17Z</time>
      </trkpt>
      <trkpt lat="44.12858" lon="2.26752">
        <ele>407.74</ele>
        <time>2021-05-02T15:26:31Z</time>
      </trkpt>
      <trkpt lat="44.12846" lon="2.2676">
        <ele>409.18</ele>
        <time>2021-05-02T15:26:45Z</time>
      </trkpt>
      <trkpt lat="44.12841" lon="2.26765">
        <ele>410.14</ele>
        <time>2021-05-02T15:26:52Z</time>
      </trkpt>
      <trkpt lat="44.12835" lon="2.26773">
        <ele>411.58</ele>
        <time>2021-05-02T15:27:01Z</time>
      </trkpt>
      <trkpt lat="44.12826" lon="2.26786">
        <ele>413.5</ele>
        <time>2021-05-02T15:27:16Z</time>
      </trkpt>
      <trkpt lat="44.12817" lon="2.26799">
        <ele>415.91</ele>
        <time>2021-05-02T15:27:33Z</time>
      </trkpt>
      <trkpt lat="44.1281" lon="2.26811">
        <ele>417.35</ele>
        <time>2021-05-02T15:27:46Z</time>
      </trkpt>
      <trkpt lat="44.128" lon="2.26823">
        <ele>419.75</ele>
        <time>2021-05-02T15:28:01Z</time>
      </trkpt>
      <trkpt lat="44.12795" lon="2.26838">
        <ele>421.19</ele>
        <time>2021-05-02T15:28:16Z</time>
      </trkpt>
      <trkpt lat="44.1279" lon="2.26854">
        <ele>423.12</ele>
        <time>2021-05-02T15:28:31Z</time>
      </trkpt>
      <trkpt lat="44.12783" lon="2.26872">
        <ele>424.56</ele>
        <time>2021-05-02T15:28:46Z</time>
      </trkpt>
      <trkpt lat="44.12777" lon="2.2689">
        <ele>426.48</ele>
        <time>2021-05-02T15:29:01Z</time>
      </trkpt>
      <trkpt lat="44.12768" lon="2.26914">
        <ele>427.44</ele>
        <time>2021-05-02T15:29:18Z</time>
      </trkpt>
      <trkpt lat="44.12763" lon="2.26939">
        <ele>428.4</ele>
        <time>2021-05-02T15:29:36Z</time>
      </trkpt>
      <trkpt lat="44.12758" lon="2.26963">
        <ele>429.37</ele>
        <time>2021-05-02T15:29:53Z</time>
      </trkpt>
      <trkpt lat="44.12755" lon="2.26989">
        <ele>429.37</ele>
        <time>2021-05-02T15:30:09Z</time>
      </trkpt>
      <trkpt lat="44.12752" lon="2.27012">
        <ele>430.33</ele>
        <time>2021-05-02T15:30:24Z</time>
      </trkpt>
      <trkpt lat="44.12741" lon="2.27033">
        <ele>431.77</ele>
        <time>2021-05-02T15:30:39Z</time>
      </trkpt>
      <trkpt lat="44.12722" lon="2.27051">
        <ele>432.73</ele>
        <time>2021-05-02T15:30:59Z</time>
      </trkpt>
      <trkpt lat="44.12712" lon="2.27063">
        <ele>433.21</ele>
        <time>2021-05-02T15:31:13Z</time>
      </trkpt>
      <trkpt lat="44.12704" lon="2.27071">
        <ele>433.21</ele>
        <time>2021-05-02T15:31:31Z</time>
      </trkpt>
      <trkpt lat="44.12689" lon="2.27088">
        <ele>434.65</ele>
        <time>2021-05-02T15:31:49Z</time>
      </trkpt>
      <trkpt lat="44.12677" lon="2.271">
        <ele>434.65</ele>
        <time>2021-05-02T15:32:03Z</time>
      </trkpt>
      <trkpt lat="44.12676" lon="2.27102">
        <ele>434.65</ele>
        <time>2021-05-02T15:32:05Z</time>
      </trkpt>
      <trkpt lat="44.1266" lon="2.27121">
        <ele>436.1</ele>
        <time>2021-05-02T15:32:25Z</time>
      </trkpt>
      <trkpt lat="44.12655" lon="2.27124">
        <ele>437.06</ele>
        <time>2021-05-02T15:32:32Z</time>
      </trkpt>
      <trkpt lat="44.12634" lon="2.27142">
        <ele>437.54</ele>
        <time>2021-05-02T15:32:54Z</time>
      </trkpt>
      <trkpt lat="44.12616" lon="2.27157">
        <ele>438.02</ele>
        <time>2021-05-02T15:33:11Z</time>
      </trkpt>
      <trkpt lat="44.12596" lon="2.27173">
        <ele>439.46</ele>
        <time>2021-05-02T15:33:31Z</time>
      </trkpt>
      <trkpt lat="44.12576" lon="2.27189">
        <ele>440.9</ele>
        <time>2021-05-02T15:33:52Z</time>
      </trkpt>
      <trkpt lat="44.1256" lon="2.27204">
        <ele>442.82</ele>
        <time>2021-05-02T15:34:09Z</time>
      </trkpt>
      <trkpt lat="44.12544" lon="2.27223">
        <ele>444.75</ele>
        <time>2021-05-02T15:34:28Z</time>
      </trkpt>
      <trkpt lat="44.12535" lon="2.2724">
        <ele>446.19</ele>
        <time>2021-05-02T15:34:43Z</time>
      </trkpt>
      <trkpt lat="44.1254" lon="2.27257">
        <ele>447.15</ele>
        <time>2021-05-02T15:34:55Z</time>
      </trkpt>
      <trkpt lat="44.12553" lon="2.27281">
        <ele>447.15</ele>
        <time>2021-05-02T15:35:13Z</time>
      </trkpt>
      <trkpt lat="44.1257" lon="2.27304">
        <ele>447.15</ele>
        <time>2021-05-02T15:35:33Z</time>
      </trkpt>
      <trkpt lat="44.12589" lon="2.27321">
        <ele>447.63</ele>
        <time>2021-05-02T15:35:51Z</time>
      </trkpt>
      <trkpt lat="44.12606" lon="2.27333">
        <ele>448.59</ele>
        <time>2021-05-02T15:36:06Z</time>
      </trkpt>
      <trkpt lat="44.12629" lon="2.27347">
        <ele>449.55</ele>
        <time>2021-05-02T15:36:27Z</time>
      </trkpt>
      <trkpt lat="44.12648" lon="2.27358">
        <ele>451.96</ele>
        <time>2021-05-02T15:36:45Z</time>
      </trkpt>
      <trkpt lat="44.12665" lon="2.27366">
        <ele>453.4</ele>
        <time>2021-05-02T15:37:02Z</time>
      </trkpt>
      <trkpt lat="44.12668" lon="2.27365">
        <ele>453.4</ele>
        <time>2021-05-02T15:37:07Z</time>
      </trkpt>
      <trkpt lat="44.12674" lon="2.27352">
        <ele>453.4</ele>
        <time>2021-05-02T15:37:16Z</time>
      </trkpt>
      <trkpt lat="44.12671" lon="2.27337">
        <ele>453.4</ele>
        <time>2021-05-02T15:37:30Z</time>
      </trkpt>
      <trkpt lat="44.12672" lon="2.27331">
        <ele>453.4</ele>
        <time>2021-05-02T15:37:46Z</time>
      </trkpt>
      <trkpt lat="44.12671" lon="2.27333">
        <ele>453.4</ele>
        <time>2021-05-02T15:38:07Z</time>
      </trkpt>
      <trkpt lat="44.1267" lon="2.27337">
        <ele>453.4</ele>
        <time>2021-05-02T15:38:25Z</time>
      </trkpt>
      <trkpt lat="44.12673" lon="2.27344">
        <ele>453.4</ele>
        <time>2021-05-02T15:38:31Z</time>
      </trkpt>
      <trkpt lat="44.12673" lon="2.27367">
        <ele>453.4</ele>
        <time>2021-05-02T15:38:47Z</time>
      </trkpt>
      <trkpt lat="44.12677" lon="2.27369">
        <ele>452.44</ele>
        <time>2021-05-02T15:38:52Z</time>
      </trkpt>
      <trkpt lat="44.12692" lon="2.27377">
        <ele>451</ele>
        <time>2021-05-02T15:39:07Z</time>
      </trkpt>
      <trkpt lat="44.12711" lon="2.27388">
        <ele>450.52</ele>
        <time>2021-05-02T15:39:25Z</time>
      </trkpt>
      <trkpt lat="44.12726" lon="2.27415">
        <ele>450.52</ele>
        <time>2021-05-02T15:39:44Z</time>
      </trkpt>
      <trkpt lat="44.12734" lon="2.27443">
        <ele>450.03</ele>
        <time>2021-05-02T15:40:04Z</time>
      </trkpt>
      <trkpt lat="44.1274" lon="2.27458">
        <ele>450.03</ele>
        <time>2021-05-02T15:40:21Z</time>
      </trkpt>
      <trkpt lat="44.12751" lon="2.27486">
        <ele>450.03</ele>
        <time>2021-05-02T15:40:40Z</time>
      </trkpt>
      <trkpt lat="44.12753" lon="2.27489">
        <ele>451.48</ele>
        <time>2021-05-02T15:40:42Z</time>
      </trkpt>
      <trkpt lat="44.12767" lon="2.27516">
        <ele>452.92</ele>
        <time>2021-05-02T15:41:02Z</time>
      </trkpt>
      <trkpt lat="44.12774" lon="2.27538">
        <ele>453.88</ele>
        <time>2021-05-02T15:41:18Z</time>
      </trkpt>
      <trkpt lat="44.1278" lon="2.27567">
        <ele>454.84</ele>
        <time>2021-05-02T15:41:36Z</time>
      </trkpt>
      <trkpt lat="44.12788" lon="2.27592">
        <ele>455.32</ele>
        <time>2021-05-02T15:41:52Z</time>
      </trkpt>
      <trkpt lat="44.12802" lon="2.27592">
        <ele>457.72</ele>
        <time>2021-05-02T15:42:04Z</time>
      </trkpt>
      <trkpt lat="44.12805" lon="2.27594">
        <ele>457.72</ele>
        <time>2021-05-02T15:42:07Z</time>
      </trkpt>
      <trkpt lat="44.12819" lon="2.27615">
        <ele>458.69</ele>
        <time>2021-05-02T15:42:26Z</time>
      </trkpt>
      <trkpt lat="44.12837" lon="2.27633">
        <ele>461.09</ele>
        <time>2021-05-02T15:42:45Z</time>
      </trkpt>
      <trkpt lat="44.12853" lon="2.27647">
        <ele>462.53</ele>
        <time>2021-05-02T15:43:01Z</time>
      </trkpt>
      <trkpt lat="44.12871" lon="2.27661">
        <ele>464.45</ele>
        <time>2021-05-02T15:43:19Z</time>
      </trkpt>
      <trkpt lat="44.12884" lon="2.27673">
        <ele>465.42</ele>
        <time>2021-05-02T15:43:34Z</time>
      </trkpt>
      <trkpt lat="44.12901" lon="2.2769">
        <ele>465.9</ele>
        <time>2021-05-02T15:43:52Z</time>
      </trkpt>
      <trkpt lat="44.12915" lon="2.27707">
        <ele>466.38</ele>
        <time>2021-05-02T15:44:09Z</time>
      </trkpt>
      <trkpt lat="44.12931" lon="2.27724">
        <ele>466.38</ele>
        <time>2021-05-02T15:44:26Z</time>
      </trkpt>
      <trkpt lat="44.12954" lon="2.27745">
        <ele>466.86</ele>
        <time>2021-05-02T15:44:46Z</time>
      </trkpt>
      <trkpt lat="44.12976" lon="2.27762">
        <ele>467.34</ele>
        <time>2021-05-02T15:45:06Z</time>
      </trkpt>
      <trkpt lat="44.12987" lon="2.27767">
        <ele>467.82</ele>
        <time>2021-05-02T15:45:21Z</time>
      </trkpt>
      <trkpt lat="44.13012" lon="2.27771">
        <ele>469.26</ele>
        <time>2021-05-02T15:45:42Z</time>
      </trkpt>
      <trkpt lat="44.1303" lon="2.27774">
        <ele>470.22</ele>
        <time>2021-05-02T15:45:59Z</time>
      </trkpt>
      <trkpt lat="44.13058" lon="2.27779">
        <ele>472.14</ele>
        <time>2021-05-02T15:46:21Z</time>
      </trkpt>
      <trkpt lat="44.13087" lon="2.27782">
        <ele>473.59</ele>
        <time>2021-05-02T15:46:43Z</time>
      </trkpt>
      <trkpt lat="44.13115" lon="2.27778">
        <ele>475.03</ele>
        <time>2021-05-02T15:47:06Z</time>
      </trkpt>
      <trkpt lat="44.13139" lon="2.27775">
        <ele>475.51</ele>
        <time>2021-05-02T15:47:25Z</time>
      </trkpt>
      <trkpt lat="44.13162" lon="2.27778">
        <ele>475.51</ele>
        <time>2021-05-02T15:47:44Z</time>
      </trkpt>
      <trkpt lat="44.13183" lon="2.27787">
        <ele>476.95</ele>
        <time>2021-05-02T15:48:03Z</time>
      </trkpt>
      <trkpt lat="44.13203" lon="2.27797">
        <ele>478.87</ele>
        <time>2021-05-02T15:48:22Z</time>
      </trkpt>
      <trkpt lat="44.13224" lon="2.27813">
        <ele>480.8</ele>
        <time>2021-05-02T15:48:44Z</time>
      </trkpt>
      <trkpt lat="44.1323" lon="2.27817">
        <ele>481.76</ele>
        <time>2021-05-02T15:48:50Z</time>
      </trkpt>
      <trkpt lat="44.13249" lon="2.27823">
        <ele>483.68</ele>
        <time>2021-05-02T15:49:09Z</time>
      </trkpt>
      <trkpt lat="44.13269" lon="2.27823">
        <ele>485.12</ele>
        <time>2021-05-02T15:49:27Z</time>
      </trkpt>
      <trkpt lat="44.13295" lon="2.27825">
        <ele>486.08</ele>
        <time>2021-05-02T15:49:47Z</time>
      </trkpt>
      <trkpt lat="44.1332" lon="2.2783">
        <ele>487.05</ele>
        <time>2021-05-02T15:50:07Z</time>
      </trkpt>
      <trkpt lat="44.13352" lon="2.27835">
        <ele>487.05</ele>
        <time>2021-05-02T15:50:31Z</time>
      </trkpt>
      <trkpt lat="44.13384" lon="2.27835">
        <ele>487.05</ele>
        <time>2021-05-02T15:50:55Z</time>
      </trkpt>
      <trkpt lat="44.13392" lon="2.27836">
        <ele>485.6</ele>
        <time>2021-05-02T15:51:01Z</time>
      </trkpt>
      <trkpt lat="44.13419" lon="2.27836">
        <ele>484.64</ele>
        <time>2021-05-02T15:51:22Z</time>
      </trkpt>
      <trkpt lat="44.13445" lon="2.27846">
        <ele>484.64</ele>
        <time>2021-05-02T15:51:42Z</time>
      </trkpt>
      <trkpt lat="44.13471" lon="2.27861">
        <ele>484.16</ele>
        <time>2021-05-02T15:52:04Z</time>
      </trkpt>
      <trkpt lat="44.13497" lon="2.27881">
        <ele>482.72</ele>
        <time>2021-05-02T15:52:26Z</time>
      </trkpt>
      <trkpt lat="44.1352" lon="2.27892">
        <ele>479.35</ele>
        <time>2021-05-02T15:52:45Z</time>
      </trkpt>
      <trkpt lat="44.13543" lon="2.27901">
        <ele>476.95</ele>
        <time>2021-05-02T15:53:04Z</time>
      </trkpt>
      <trkpt lat="44.13568" lon="2.27912">
        <ele>475.03</ele>
        <time>2021-05-02T15:53:24Z</time>
      </trkpt>
      <trkpt lat="44.13595" lon="2.27932">
        <ele>474.07</ele>
        <time>2021-05-02T15:53:49Z</time>
      </trkpt>
      <trkpt lat="44.1361" lon="2.27955">
        <ele>474.07</ele>
        <time>2021-05-02T15:54:06Z</time>
      </trkpt>
      <trkpt lat="44.1363" lon="2.27972">
        <ele>474.55</ele>
        <time>2021-05-02T15:54:27Z</time>
      </trkpt>
      <trkpt lat="44.13643" lon="2.27982">
        <ele>474.55</ele>
        <time>2021-05-02T15:54:44Z</time>
      </trkpt>
      <trkpt lat="44.13642" lon="2.27986">
        <ele>474.55</ele>
        <time>2021-05-02T15:55:08Z</time>
      </trkpt>
      <trkpt lat="44.13643" lon="2.27986">
        <ele>474.55</ele>
        <time>2021-05-02T15:55:13Z</time>
      </trkpt>
      <trkpt lat="44.13671" lon="2.27997">
        <ele>473.59</ele>
        <time>2021-05-02T15:55:36Z</time>
      </trkpt>
      <trkpt lat="44.13695" lon="2.28009">
        <ele>473.11</ele>
        <time>2021-05-02T15:55:57Z</time>
      </trkpt>
      <trkpt lat="44.13711" lon="2.28021">
        <ele>473.11</ele>
        <time>2021-05-02T15:56:12Z</time>
      </trkpt>
      <trkpt lat="44.13721" lon="2.28056">
        <ele>472.63</ele>
        <time>2021-05-02T15:56:33Z</time>
      </trkpt>
      <trkpt lat="44.13729" lon="2.28097">
        <ele>472.14</ele>
        <time>2021-05-02T15:56:58Z</time>
      </trkpt>
      <trkpt lat="44.13737" lon="2.28133">
        <ele>472.14</ele>
        <time>2021-05-02T15:57:18Z</time>
      </trkpt>
      <trkpt lat="44.13748" lon="2.28159">
        <ele>474.07</ele>
        <time>2021-05-02T15:57:35Z</time>
      </trkpt>
      <trkpt lat="44.1376" lon="2.28193">
        <ele>474.07</ele>
        <time>2021-05-02T15:57:56Z</time>
      </trkpt>
      <trkpt lat="44.13767" lon="2.28223">
        <ele>474.07</ele>
        <time>2021-05-02T15:58:15Z</time>
      </trkpt>
      <trkpt lat="44.13771" lon="2.2826">
        <ele>474.07</ele>
        <time>2021-05-02T15:58:36Z</time>
      </trkpt>
      <trkpt lat="44.13766" lon="2.28295">
        <ele>474.07</ele>
        <time>2021-05-02T15:58:56Z</time>
      </trkpt>
      <trkpt lat="44.13758" lon="2.28323">
        <ele>474.55</ele>
        <time>2021-05-02T15:59:14Z</time>
      </trkpt>
      <trkpt lat="44.13748" lon="2.28346">
        <ele>474.07</ele>
        <time>2021-05-02T15:59:28Z</time>
      </trkpt>
      <trkpt lat="44.13737" lon="2.28376">
        <ele>475.03</ele>
        <time>2021-05-02T15:59:45Z</time>
      </trkpt>
      <trkpt lat="44.13729" lon="2.28399">
        <ele>475.99</ele>
        <time>2021-05-02T16:00:01Z</time>
      </trkpt>
      <trkpt lat="44.13723" lon="2.28413">
        <ele>476.47</ele>
        <time>2021-05-02T16:00:11Z</time>
      </trkpt>
      <trkpt lat="44.13718" lon="2.28423">
        <ele>476.95</ele>
        <time>2021-05-02T16:00:18Z</time>
      </trkpt>
      <trkpt lat="44.1371" lon="2.28446">
        <ele>476.95</ele>
        <time>2021-05-02T16:00:33Z</time>
      </trkpt>
      <trkpt lat="44.13706" lon="2.28479">
        <ele>476.95</ele>
        <time>2021-05-02T16:00:55Z</time>
      </trkpt>
      <trkpt lat="44.13706" lon="2.28501">
        <ele>478.39</ele>
        <time>2021-05-02T16:01:11Z</time>
      </trkpt>
      <trkpt lat="44.13706" lon="2.28503">
        <ele>478.39</ele>
        <time>2021-05-02T16:01:38Z</time>
      </trkpt>
      <trkpt lat="44.13707" lon="2.28504">
        <ele>478.39</ele>
        <time>2021-05-02T16:01:56Z</time>
      </trkpt>
      <trkpt lat="44.13706" lon="2.28505">
        <ele>478.87</ele>
        <time>2021-05-02T16:02:13Z</time>
      </trkpt>
      <trkpt lat="44.13706" lon="2.28505">
        <ele>477.43</ele>
        <time>2021-05-02T16:02:20Z</time>
      </trkpt>
      <trkpt lat="44.13704" lon="2.285">
        <ele>477.91</ele>
        <time>2021-05-02T16:02:41Z</time>
      </trkpt>
    </trkseg>
  </trk>
</gpx>